<?xml version="1.0" encoding="UTF-8" standalone="no" ?>
<gpx xmlns="http://www.topografix.com/GPX/1/1" xmlns:xsi="http://www.w3.org/2001/XMLSchema-instance" xsi:schemaLocation="http://www.topografix.com/GPX/1/1 http://www.topografix.com/GPX/1/1/gpx.xsd" version="1.1" creator="VisuGPX - https://www.visugpx.com">
  <metadata>
    <name>Le Mont Rosset (73 Beaufortain)</name>
    <desc><![CDATA[Départ des Pars (Le Granier)
Photos et commentaires sur : [url]www.photosrandos.fr[/url]]]></desc>
  </metadata>
  <trk>
    <name><![CDATA[Le Mont Rosset (73 Beaufortain)_1]]></name>
    <trkseg>
      <trkpt lat="45.59175" lon="6.671">
        <ele>1448.433</ele>
        <time>2009-02-19T07:58:04Z</time>
      </trkpt>
      <trkpt lat="45.59192" lon="6.67096">
        <ele>1455.019</ele>
        <time>2009-02-19T08:00:00Z</time>
      </trkpt>
      <trkpt lat="45.5921" lon="6.67088">
        <ele>1458.12</ele>
        <time>2009-02-19T08:00:21Z</time>
      </trkpt>
      <trkpt lat="45.59229" lon="6.67083">
        <ele>1459.307</ele>
        <time>2009-02-19T08:00:38Z</time>
      </trkpt>
      <trkpt lat="45.59247" lon="6.67083">
        <ele>1457.755</ele>
        <time>2009-02-19T08:00:57Z</time>
      </trkpt>
      <trkpt lat="45.59266" lon="6.67082">
        <ele>1460.075</ele>
        <time>2009-02-19T08:01:14Z</time>
      </trkpt>
      <trkpt lat="45.59284" lon="6.67081">
        <ele>1460.718</ele>
        <time>2009-02-19T08:01:30Z</time>
      </trkpt>
      <trkpt lat="45.59303" lon="6.67079">
        <ele>1460.808</ele>
        <time>2009-02-19T08:01:46Z</time>
      </trkpt>
      <trkpt lat="45.59321" lon="6.67083">
        <ele>1457.724</ele>
        <time>2009-02-19T08:02:03Z</time>
      </trkpt>
      <trkpt lat="45.59339" lon="6.67084">
        <ele>1461.085</ele>
        <time>2009-02-19T08:02:24Z</time>
      </trkpt>
      <trkpt lat="45.59358" lon="6.67087">
        <ele>1459.856</ele>
        <time>2009-02-19T08:02:43Z</time>
      </trkpt>
      <trkpt lat="45.59376" lon="6.67083">
        <ele>1463.25</ele>
        <time>2009-02-19T08:03:02Z</time>
      </trkpt>
      <trkpt lat="45.59394" lon="6.67075">
        <ele>1464.716</ele>
        <time>2009-02-19T08:03:19Z</time>
      </trkpt>
      <trkpt lat="45.5941" lon="6.67063">
        <ele>1464.168</ele>
        <time>2009-02-19T08:03:38Z</time>
      </trkpt>
      <trkpt lat="45.59427" lon="6.67052">
        <ele>1467.773</ele>
        <time>2009-02-19T08:03:57Z</time>
      </trkpt>
      <trkpt lat="45.59444" lon="6.67042">
        <ele>1466.279</ele>
        <time>2009-02-19T08:04:20Z</time>
      </trkpt>
      <trkpt lat="45.59462" lon="6.67038">
        <ele>1468.034</ele>
        <time>2009-02-19T08:04:41Z</time>
      </trkpt>
      <trkpt lat="45.59478" lon="6.67024">
        <ele>1469.603</ele>
        <time>2009-02-19T08:05:00Z</time>
      </trkpt>
      <trkpt lat="45.59493" lon="6.6701">
        <ele>1469.938</ele>
        <time>2009-02-19T08:05:22Z</time>
      </trkpt>
      <trkpt lat="45.59509" lon="6.66999">
        <ele>1472.727</ele>
        <time>2009-02-19T08:05:43Z</time>
      </trkpt>
      <trkpt lat="45.59528" lon="6.66999">
        <ele>1472.255</ele>
        <time>2009-02-19T08:06:05Z</time>
      </trkpt>
      <trkpt lat="45.59545" lon="6.67005">
        <ele>1469.327</ele>
        <time>2009-02-19T08:06:24Z</time>
      </trkpt>
      <trkpt lat="45.59564" lon="6.67006">
        <ele>1469.741</ele>
        <time>2009-02-19T08:06:45Z</time>
      </trkpt>
      <trkpt lat="45.59581" lon="6.67002">
        <ele>1473.352</ele>
        <time>2009-02-19T08:07:03Z</time>
      </trkpt>
      <trkpt lat="45.59598" lon="6.67009">
        <ele>1475.789</ele>
        <time>2009-02-19T08:07:24Z</time>
      </trkpt>
      <trkpt lat="45.59616" lon="6.67015">
        <ele>1479.672</ele>
        <time>2009-02-19T08:07:45Z</time>
      </trkpt>
      <trkpt lat="45.59634" lon="6.67016">
        <ele>1483.884</ele>
        <time>2009-02-19T08:08:09Z</time>
      </trkpt>
      <trkpt lat="45.59642" lon="6.66995">
        <ele>1491.616</ele>
        <time>2009-02-19T08:08:28Z</time>
      </trkpt>
      <trkpt lat="45.59639" lon="6.6697">
        <ele>1497.574</ele>
        <time>2009-02-19T08:08:48Z</time>
      </trkpt>
      <trkpt lat="45.59636" lon="6.66946">
        <ele>1503.781</ele>
        <time>2009-02-19T08:09:10Z</time>
      </trkpt>
      <trkpt lat="45.59639" lon="6.66921">
        <ele>1509.408</ele>
        <time>2009-02-19T08:09:32Z</time>
      </trkpt>
      <trkpt lat="45.59638" lon="6.66895">
        <ele>1507.382</ele>
        <time>2009-02-19T08:09:56Z</time>
      </trkpt>
      <trkpt lat="45.59639" lon="6.66869">
        <ele>1506.688</ele>
        <time>2009-02-19T08:10:18Z</time>
      </trkpt>
      <trkpt lat="45.59639" lon="6.66843">
        <ele>1507.895</ele>
        <time>2009-02-19T08:10:41Z</time>
      </trkpt>
      <trkpt lat="45.59643" lon="6.66817">
        <ele>1508.726</ele>
        <time>2009-02-19T08:11:22Z</time>
      </trkpt>
      <trkpt lat="45.59652" lon="6.66795">
        <ele>1511.264</ele>
        <time>2009-02-19T08:11:46Z</time>
      </trkpt>
      <trkpt lat="45.59666" lon="6.66778">
        <ele>1511.461</ele>
        <time>2009-02-19T08:12:45Z</time>
      </trkpt>
      <trkpt lat="45.59682" lon="6.66789">
        <ele>1513.759</ele>
        <time>2009-02-19T08:13:10Z</time>
      </trkpt>
      <trkpt lat="45.59698" lon="6.66802">
        <ele>1515.721</ele>
        <time>2009-02-19T08:13:34Z</time>
      </trkpt>
      <trkpt lat="45.59711" lon="6.66815">
        <ele>1524.914</ele>
        <time>2009-02-19T08:13:52Z</time>
      </trkpt>
      <trkpt lat="45.59723" lon="6.66833">
        <ele>1531.649</ele>
        <time>2009-02-19T08:14:13Z</time>
      </trkpt>
      <trkpt lat="45.59733" lon="6.66854">
        <ele>1529.473</ele>
        <time>2009-02-19T08:14:40Z</time>
      </trkpt>
      <trkpt lat="45.59733" lon="6.6688">
        <ele>1527.025</ele>
        <time>2009-02-19T08:15:06Z</time>
      </trkpt>
      <trkpt lat="45.59731" lon="6.66906">
        <ele>1524.244</ele>
        <time>2009-02-19T08:15:29Z</time>
      </trkpt>
      <trkpt lat="45.59737" lon="6.6693">
        <ele>1524.437</ele>
        <time>2009-02-19T08:15:50Z</time>
      </trkpt>
      <trkpt lat="45.59746" lon="6.66953">
        <ele>1528.381</ele>
        <time>2009-02-19T08:16:13Z</time>
      </trkpt>
      <trkpt lat="45.59764" lon="6.66958">
        <ele>1528.564</ele>
        <time>2009-02-19T08:18:20Z</time>
      </trkpt>
      <trkpt lat="45.59782" lon="6.6696">
        <ele>1530.684</ele>
        <time>2009-02-19T08:18:39Z</time>
      </trkpt>
      <trkpt lat="45.598" lon="6.66957">
        <ele>1532.35</ele>
        <time>2009-02-19T08:19:06Z</time>
      </trkpt>
      <trkpt lat="45.59818" lon="6.66954">
        <ele>1536.57</ele>
        <time>2009-02-19T08:19:28Z</time>
      </trkpt>
      <trkpt lat="45.59836" lon="6.6695">
        <ele>1536.538</ele>
        <time>2009-02-19T08:19:51Z</time>
      </trkpt>
      <trkpt lat="45.59855" lon="6.6695">
        <ele>1537.019</ele>
        <time>2009-02-19T08:20:15Z</time>
      </trkpt>
      <trkpt lat="45.59872" lon="6.66955">
        <ele>1540.633</ele>
        <time>2009-02-19T08:20:40Z</time>
      </trkpt>
      <trkpt lat="45.59887" lon="6.66969">
        <ele>1547.022</ele>
        <time>2009-02-19T08:21:03Z</time>
      </trkpt>
      <trkpt lat="45.59899" lon="6.66987">
        <ele>1551.343</ele>
        <time>2009-02-19T08:21:25Z</time>
      </trkpt>
      <trkpt lat="45.59912" lon="6.67005">
        <ele>1555.19</ele>
        <time>2009-02-19T08:21:48Z</time>
      </trkpt>
      <trkpt lat="45.59928" lon="6.67017">
        <ele>1553.159</ele>
        <time>2009-02-19T08:22:08Z</time>
      </trkpt>
      <trkpt lat="45.59945" lon="6.67025">
        <ele>1550.92</ele>
        <time>2009-02-19T08:22:31Z</time>
      </trkpt>
      <trkpt lat="45.59964" lon="6.67026">
        <ele>1552.185</ele>
        <time>2009-02-19T08:22:56Z</time>
      </trkpt>
      <trkpt lat="45.59982" lon="6.67026">
        <ele>1555.577</ele>
        <time>2009-02-19T08:23:19Z</time>
      </trkpt>
      <trkpt lat="45.6" lon="6.67028">
        <ele>1551.21</ele>
        <time>2009-02-19T08:23:41Z</time>
      </trkpt>
      <trkpt lat="45.60017" lon="6.67033">
        <ele>1555.695</ele>
        <time>2009-02-19T08:24:03Z</time>
      </trkpt>
      <trkpt lat="45.60035" lon="6.67043">
        <ele>1556.364</ele>
        <time>2009-02-19T08:24:30Z</time>
      </trkpt>
      <trkpt lat="45.60051" lon="6.67056">
        <ele>1560.667</ele>
        <time>2009-02-19T08:25:17Z</time>
      </trkpt>
      <trkpt lat="45.60065" lon="6.67074">
        <ele>1561.776</ele>
        <time>2009-02-19T08:25:49Z</time>
      </trkpt>
      <trkpt lat="45.60074" lon="6.67096">
        <ele>1565.971</ele>
        <time>2009-02-19T08:26:16Z</time>
      </trkpt>
      <trkpt lat="45.60092" lon="6.6709">
        <ele>1565.744</ele>
        <time>2009-02-19T08:26:56Z</time>
      </trkpt>
      <trkpt lat="45.60108" lon="6.6709">
        <ele>1575.768</ele>
        <time>2009-02-19T08:27:24Z</time>
      </trkpt>
      <trkpt lat="45.60125" lon="6.67097">
        <ele>1580.516</ele>
        <time>2009-02-19T08:27:58Z</time>
      </trkpt>
      <trkpt lat="45.60142" lon="6.67106">
        <ele>1585.654</ele>
        <time>2009-02-19T08:28:26Z</time>
      </trkpt>
      <trkpt lat="45.60159" lon="6.67113">
        <ele>1591.641</ele>
        <time>2009-02-19T08:29:48Z</time>
      </trkpt>
      <trkpt lat="45.60177" lon="6.6712">
        <ele>1596.917</ele>
        <time>2009-02-19T08:30:14Z</time>
      </trkpt>
      <trkpt lat="45.60195" lon="6.67124">
        <ele>1600.977</ele>
        <time>2009-02-19T08:30:44Z</time>
      </trkpt>
      <trkpt lat="45.60213" lon="6.67128">
        <ele>1600.444</ele>
        <time>2009-02-19T08:31:16Z</time>
      </trkpt>
      <trkpt lat="45.60227" lon="6.67141">
        <ele>1607.674</ele>
        <time>2009-02-19T08:31:47Z</time>
      </trkpt>
      <trkpt lat="45.60245" lon="6.67145">
        <ele>1611.974</ele>
        <time>2009-02-19T08:33:26Z</time>
      </trkpt>
      <trkpt lat="45.60255" lon="6.67164">
        <ele>1619.687</ele>
        <time>2009-02-19T08:33:52Z</time>
      </trkpt>
      <trkpt lat="45.6027" lon="6.67177">
        <ele>1617.283</ele>
        <time>2009-02-19T08:38:15Z</time>
      </trkpt>
      <trkpt lat="45.60285" lon="6.67193">
        <ele>1615.453</ele>
        <time>2009-02-19T08:38:45Z</time>
      </trkpt>
      <trkpt lat="45.60299" lon="6.67207">
        <ele>1622.147</ele>
        <time>2009-02-19T08:39:11Z</time>
      </trkpt>
      <trkpt lat="45.60314" lon="6.67222">
        <ele>1625.868</ele>
        <time>2009-02-19T08:39:37Z</time>
      </trkpt>
      <trkpt lat="45.6033" lon="6.67235">
        <ele>1628.369</ele>
        <time>2009-02-19T08:40:04Z</time>
      </trkpt>
      <trkpt lat="45.60346" lon="6.67249">
        <ele>1626.973</ele>
        <time>2009-02-19T08:40:30Z</time>
      </trkpt>
      <trkpt lat="45.60361" lon="6.67263">
        <ele>1628.681</ele>
        <time>2009-02-19T08:40:48Z</time>
      </trkpt>
      <trkpt lat="45.60378" lon="6.67273">
        <ele>1632.527</ele>
        <time>2009-02-19T08:41:13Z</time>
      </trkpt>
      <trkpt lat="45.60396" lon="6.67281">
        <ele>1633.409</ele>
        <time>2009-02-19T08:41:39Z</time>
      </trkpt>
      <trkpt lat="45.60414" lon="6.67283">
        <ele>1633.753</ele>
        <time>2009-02-19T08:42:04Z</time>
      </trkpt>
      <trkpt lat="45.60433" lon="6.67284">
        <ele>1636.127</ele>
        <time>2009-02-19T08:42:34Z</time>
      </trkpt>
      <trkpt lat="45.6045" lon="6.67289">
        <ele>1639.674</ele>
        <time>2009-02-19T08:42:56Z</time>
      </trkpt>
      <trkpt lat="45.60467" lon="6.67297">
        <ele>1639.389</ele>
        <time>2009-02-19T08:43:18Z</time>
      </trkpt>
      <trkpt lat="45.60484" lon="6.6731">
        <ele>1640.656</ele>
        <time>2009-02-19T08:43:43Z</time>
      </trkpt>
      <trkpt lat="45.60497" lon="6.67328">
        <ele>1641.23</ele>
        <time>2009-02-19T08:44:09Z</time>
      </trkpt>
      <trkpt lat="45.60513" lon="6.67342">
        <ele>1642.544</ele>
        <time>2009-02-19T08:44:30Z</time>
      </trkpt>
      <trkpt lat="45.60527" lon="6.67359">
        <ele>1644.294</ele>
        <time>2009-02-19T08:44:55Z</time>
      </trkpt>
      <trkpt lat="45.60544" lon="6.67371">
        <ele>1645.654</ele>
        <time>2009-02-19T08:45:23Z</time>
      </trkpt>
      <trkpt lat="45.60558" lon="6.67387">
        <ele>1649.313</ele>
        <time>2009-02-19T08:45:47Z</time>
      </trkpt>
      <trkpt lat="45.60576" lon="6.67395">
        <ele>1647.958</ele>
        <time>2009-02-19T08:46:10Z</time>
      </trkpt>
      <trkpt lat="45.60593" lon="6.67404">
        <ele>1651.535</ele>
        <time>2009-02-19T08:46:32Z</time>
      </trkpt>
      <trkpt lat="45.60611" lon="6.67409">
        <ele>1651.109</ele>
        <time>2009-02-19T08:47:08Z</time>
      </trkpt>
      <trkpt lat="45.60628" lon="6.67418">
        <ele>1651.086</ele>
        <time>2009-02-19T08:47:31Z</time>
      </trkpt>
      <trkpt lat="45.60645" lon="6.67428">
        <ele>1649.407</ele>
        <time>2009-02-19T08:47:52Z</time>
      </trkpt>
      <trkpt lat="45.60661" lon="6.67439">
        <ele>1653.336</ele>
        <time>2009-02-19T08:48:16Z</time>
      </trkpt>
      <trkpt lat="45.60678" lon="6.67449">
        <ele>1656.637</ele>
        <time>2009-02-19T08:48:41Z</time>
      </trkpt>
      <trkpt lat="45.60694" lon="6.67462">
        <ele>1658.894</ele>
        <time>2009-02-19T08:49:07Z</time>
      </trkpt>
      <trkpt lat="45.60711" lon="6.67472">
        <ele>1659.252</ele>
        <time>2009-02-19T08:49:29Z</time>
      </trkpt>
      <trkpt lat="45.60728" lon="6.6748">
        <ele>1662.237</ele>
        <time>2009-02-19T08:49:54Z</time>
      </trkpt>
      <trkpt lat="45.60745" lon="6.67491">
        <ele>1662.999</ele>
        <time>2009-02-19T08:50:22Z</time>
      </trkpt>
      <trkpt lat="45.60762" lon="6.67499">
        <ele>1665.495</ele>
        <time>2009-02-19T08:50:44Z</time>
      </trkpt>
      <trkpt lat="45.6078" lon="6.67506">
        <ele>1668.125</ele>
        <time>2009-02-19T08:51:04Z</time>
      </trkpt>
      <trkpt lat="45.60797" lon="6.67511">
        <ele>1668.427</ele>
        <time>2009-02-19T08:51:45Z</time>
      </trkpt>
      <trkpt lat="45.60816" lon="6.67516">
        <ele>1670.081</ele>
        <time>2009-02-19T08:52:05Z</time>
      </trkpt>
      <trkpt lat="45.60834" lon="6.67519">
        <ele>1674.541</ele>
        <time>2009-02-19T08:52:24Z</time>
      </trkpt>
      <trkpt lat="45.60851" lon="6.67528">
        <ele>1673.501</ele>
        <time>2009-02-19T08:52:39Z</time>
      </trkpt>
      <trkpt lat="45.6087" lon="6.67538">
        <ele>1676.819</ele>
        <time>2009-02-19T08:52:56Z</time>
      </trkpt>
      <trkpt lat="45.60886" lon="6.6755">
        <ele>1674.569</ele>
        <time>2009-02-19T08:53:13Z</time>
      </trkpt>
      <trkpt lat="45.60904" lon="6.67557">
        <ele>1669.258</ele>
        <time>2009-02-19T08:53:33Z</time>
      </trkpt>
      <trkpt lat="45.60921" lon="6.67568">
        <ele>1672.095</ele>
        <time>2009-02-19T08:53:55Z</time>
      </trkpt>
      <trkpt lat="45.60936" lon="6.67581">
        <ele>1675.916</ele>
        <time>2009-02-19T08:54:14Z</time>
      </trkpt>
      <trkpt lat="45.60953" lon="6.67589">
        <ele>1673.241</ele>
        <time>2009-02-19T08:54:34Z</time>
      </trkpt>
      <trkpt lat="45.60968" lon="6.67603">
        <ele>1671.819</ele>
        <time>2009-02-19T08:54:54Z</time>
      </trkpt>
      <trkpt lat="45.60981" lon="6.67621">
        <ele>1670.329</ele>
        <time>2009-02-19T08:55:11Z</time>
      </trkpt>
      <trkpt lat="45.60995" lon="6.67638">
        <ele>1673.642</ele>
        <time>2009-02-19T08:55:33Z</time>
      </trkpt>
      <trkpt lat="45.61012" lon="6.67647">
        <ele>1676.398</ele>
        <time>2009-02-19T08:55:58Z</time>
      </trkpt>
      <trkpt lat="45.6103" lon="6.67653">
        <ele>1679.546</ele>
        <time>2009-02-19T08:57:14Z</time>
      </trkpt>
      <trkpt lat="45.61047" lon="6.67661">
        <ele>1684.3</ele>
        <time>2009-02-19T08:57:30Z</time>
      </trkpt>
      <trkpt lat="45.61066" lon="6.6767">
        <ele>1682.851</ele>
        <time>2009-02-19T08:57:47Z</time>
      </trkpt>
      <trkpt lat="45.61083" lon="6.67681">
        <ele>1682.745</ele>
        <time>2009-02-19T08:58:04Z</time>
      </trkpt>
      <trkpt lat="45.61101" lon="6.67689">
        <ele>1680.984</ele>
        <time>2009-02-19T08:58:21Z</time>
      </trkpt>
      <trkpt lat="45.61119" lon="6.67696">
        <ele>1679.728</ele>
        <time>2009-02-19T08:58:52Z</time>
      </trkpt>
      <trkpt lat="45.61136" lon="6.67702">
        <ele>1683.762</ele>
        <time>2009-02-19T08:59:13Z</time>
      </trkpt>
      <trkpt lat="45.61154" lon="6.67708">
        <ele>1684.749</ele>
        <time>2009-02-19T08:59:35Z</time>
      </trkpt>
      <trkpt lat="45.61172" lon="6.67714">
        <ele>1684.593</ele>
        <time>2009-02-19T09:00:00Z</time>
      </trkpt>
      <trkpt lat="45.61189" lon="6.67721">
        <ele>1686.248</ele>
        <time>2009-02-19T09:00:28Z</time>
      </trkpt>
      <trkpt lat="45.61209" lon="6.67722">
        <ele>1688.121</ele>
        <time>2009-02-19T09:00:58Z</time>
      </trkpt>
      <trkpt lat="45.61226" lon="6.67731">
        <ele>1686.266</ele>
        <time>2009-02-19T09:01:08Z</time>
      </trkpt>
      <trkpt lat="45.61243" lon="6.67742">
        <ele>1682.943</ele>
        <time>2009-02-19T09:01:18Z</time>
      </trkpt>
      <trkpt lat="45.61262" lon="6.67743">
        <ele>1683.682</ele>
        <time>2009-02-19T09:01:59Z</time>
      </trkpt>
      <trkpt lat="45.61279" lon="6.67748">
        <ele>1688.306</ele>
        <time>2009-02-19T09:02:16Z</time>
      </trkpt>
      <trkpt lat="45.61297" lon="6.67752">
        <ele>1690.674</ele>
        <time>2009-02-19T09:02:33Z</time>
      </trkpt>
      <trkpt lat="45.61315" lon="6.67755">
        <ele>1691.186</ele>
        <time>2009-02-19T09:02:51Z</time>
      </trkpt>
      <trkpt lat="45.61333" lon="6.67761">
        <ele>1689.276</ele>
        <time>2009-02-19T09:03:10Z</time>
      </trkpt>
      <trkpt lat="45.6135" lon="6.6777">
        <ele>1693.164</ele>
        <time>2009-02-19T09:03:26Z</time>
      </trkpt>
      <trkpt lat="45.61368" lon="6.67777">
        <ele>1691.67</ele>
        <time>2009-02-19T09:03:46Z</time>
      </trkpt>
      <trkpt lat="45.61386" lon="6.67784">
        <ele>1693.507</ele>
        <time>2009-02-19T09:04:05Z</time>
      </trkpt>
      <trkpt lat="45.61404" lon="6.67791">
        <ele>1692.251</ele>
        <time>2009-02-19T09:04:27Z</time>
      </trkpt>
      <trkpt lat="45.61422" lon="6.67796">
        <ele>1694.065</ele>
        <time>2009-02-19T09:04:49Z</time>
      </trkpt>
      <trkpt lat="45.6144" lon="6.67802">
        <ele>1695.978</ele>
        <time>2009-02-19T09:05:09Z</time>
      </trkpt>
      <trkpt lat="45.61457" lon="6.67808">
        <ele>1700.179</ele>
        <time>2009-02-19T09:05:31Z</time>
      </trkpt>
      <trkpt lat="45.61473" lon="6.67818">
        <ele>1703.519</ele>
        <time>2009-02-19T09:05:58Z</time>
      </trkpt>
      <trkpt lat="45.61491" lon="6.67825">
        <ele>1702.147</ele>
        <time>2009-02-19T09:06:18Z</time>
      </trkpt>
      <trkpt lat="45.61508" lon="6.67832">
        <ele>1706.145</ele>
        <time>2009-02-19T09:06:43Z</time>
      </trkpt>
      <trkpt lat="45.61527" lon="6.67837">
        <ele>1706.93</ele>
        <time>2009-02-19T09:07:02Z</time>
      </trkpt>
      <trkpt lat="45.61545" lon="6.67838">
        <ele>1705.04</ele>
        <time>2009-02-19T09:07:46Z</time>
      </trkpt>
      <trkpt lat="45.61563" lon="6.6784">
        <ele>1708.453</ele>
        <time>2009-02-19T09:08:04Z</time>
      </trkpt>
      <trkpt lat="45.61581" lon="6.67841">
        <ele>1713.304</ele>
        <time>2009-02-19T09:08:22Z</time>
      </trkpt>
      <trkpt lat="45.61599" lon="6.67845">
        <ele>1712.695</ele>
        <time>2009-02-19T09:08:42Z</time>
      </trkpt>
      <trkpt lat="45.61617" lon="6.67849">
        <ele>1713.674</ele>
        <time>2009-02-19T09:09:00Z</time>
      </trkpt>
      <trkpt lat="45.61636" lon="6.6785">
        <ele>1710.178</ele>
        <time>2009-02-19T09:09:21Z</time>
      </trkpt>
      <trkpt lat="45.61654" lon="6.67856">
        <ele>1712.977</ele>
        <time>2009-02-19T09:09:41Z</time>
      </trkpt>
      <trkpt lat="45.61672" lon="6.67854">
        <ele>1716.134</ele>
        <time>2009-02-19T09:10:00Z</time>
      </trkpt>
      <trkpt lat="45.6169" lon="6.67854">
        <ele>1716.142</ele>
        <time>2009-02-19T09:10:21Z</time>
      </trkpt>
      <trkpt lat="45.61709" lon="6.67851">
        <ele>1717.324</ele>
        <time>2009-02-19T09:10:43Z</time>
      </trkpt>
      <trkpt lat="45.61727" lon="6.67848">
        <ele>1720.076</ele>
        <time>2009-02-19T09:11:05Z</time>
      </trkpt>
      <trkpt lat="45.61744" lon="6.67842">
        <ele>1722.275</ele>
        <time>2009-02-19T09:11:25Z</time>
      </trkpt>
      <trkpt lat="45.61763" lon="6.67837">
        <ele>1722.959</ele>
        <time>2009-02-19T09:11:48Z</time>
      </trkpt>
      <trkpt lat="45.61781" lon="6.67835">
        <ele>1722.001</ele>
        <time>2009-02-19T09:19:53Z</time>
      </trkpt>
      <trkpt lat="45.61799" lon="6.67831">
        <ele>1727.942</ele>
        <time>2009-02-19T09:20:06Z</time>
      </trkpt>
      <trkpt lat="45.61817" lon="6.67834">
        <ele>1729.355</ele>
        <time>2009-02-19T09:20:23Z</time>
      </trkpt>
      <trkpt lat="45.61835" lon="6.67839">
        <ele>1733.62</ele>
        <time>2009-02-19T09:20:37Z</time>
      </trkpt>
      <trkpt lat="45.61853" lon="6.67841">
        <ele>1730.131</ele>
        <time>2009-02-19T09:20:53Z</time>
      </trkpt>
      <trkpt lat="45.6187" lon="6.6785">
        <ele>1730.719</ele>
        <time>2009-02-19T09:21:09Z</time>
      </trkpt>
      <trkpt lat="45.61887" lon="6.67858">
        <ele>1728.089</ele>
        <time>2009-02-19T09:21:28Z</time>
      </trkpt>
      <trkpt lat="45.61905" lon="6.67855">
        <ele>1726.335</ele>
        <time>2009-02-19T09:22:14Z</time>
      </trkpt>
      <trkpt lat="45.61923" lon="6.67848">
        <ele>1728.071</ele>
        <time>2009-02-19T09:24:01Z</time>
      </trkpt>
      <trkpt lat="45.61941" lon="6.67849">
        <ele>1728.79</ele>
        <time>2009-02-19T09:24:25Z</time>
      </trkpt>
      <trkpt lat="45.61959" lon="6.67848">
        <ele>1735.754</ele>
        <time>2009-02-19T09:24:47Z</time>
      </trkpt>
      <trkpt lat="45.61977" lon="6.67845">
        <ele>1732.193</ele>
        <time>2009-02-19T09:25:09Z</time>
      </trkpt>
      <trkpt lat="45.61995" lon="6.67848">
        <ele>1731.881</ele>
        <time>2009-02-19T09:25:30Z</time>
      </trkpt>
      <trkpt lat="45.62013" lon="6.67847">
        <ele>1734.848</ele>
        <time>2009-02-19T09:25:57Z</time>
      </trkpt>
      <trkpt lat="45.62032" lon="6.67848">
        <ele>1735.683</ele>
        <time>2009-02-19T09:26:22Z</time>
      </trkpt>
      <trkpt lat="45.6205" lon="6.67849">
        <ele>1735.193</ele>
        <time>2009-02-19T09:26:46Z</time>
      </trkpt>
      <trkpt lat="45.62066" lon="6.67852">
        <ele>1743.668</ele>
        <time>2009-02-19T09:27:06Z</time>
      </trkpt>
      <trkpt lat="45.62084" lon="6.67845">
        <ele>1744.735</ele>
        <time>2009-02-19T09:27:43Z</time>
      </trkpt>
      <trkpt lat="45.62102" lon="6.67854">
        <ele>1746.283</ele>
        <time>2009-02-19T09:28:06Z</time>
      </trkpt>
      <trkpt lat="45.6212" lon="6.67856">
        <ele>1746.015</ele>
        <time>2009-02-19T09:28:32Z</time>
      </trkpt>
      <trkpt lat="45.62138" lon="6.67856">
        <ele>1749.733</ele>
        <time>2009-02-19T09:28:58Z</time>
      </trkpt>
      <trkpt lat="45.62157" lon="6.67857">
        <ele>1746.569</ele>
        <time>2009-02-19T09:29:21Z</time>
      </trkpt>
      <trkpt lat="45.62173" lon="6.6786">
        <ele>1753.977</ele>
        <time>2009-02-19T09:29:47Z</time>
      </trkpt>
      <trkpt lat="45.62192" lon="6.67858">
        <ele>1756.797</ele>
        <time>2009-02-19T09:30:18Z</time>
      </trkpt>
      <trkpt lat="45.6221" lon="6.67856">
        <ele>1758.311</ele>
        <time>2009-02-19T09:30:38Z</time>
      </trkpt>
      <trkpt lat="45.62228" lon="6.67853">
        <ele>1754.834</ele>
        <time>2009-02-19T09:31:05Z</time>
      </trkpt>
      <trkpt lat="45.62245" lon="6.67847">
        <ele>1761.077</ele>
        <time>2009-02-19T09:31:36Z</time>
      </trkpt>
      <trkpt lat="45.62262" lon="6.67839">
        <ele>1759.959</ele>
        <time>2009-02-19T09:32:00Z</time>
      </trkpt>
      <trkpt lat="45.62279" lon="6.6783">
        <ele>1757.009</ele>
        <time>2009-02-19T09:32:31Z</time>
      </trkpt>
      <trkpt lat="45.62295" lon="6.67822">
        <ele>1764.334</ele>
        <time>2009-02-19T09:33:03Z</time>
      </trkpt>
      <trkpt lat="45.62313" lon="6.67817">
        <ele>1767.711</ele>
        <time>2009-02-19T09:33:33Z</time>
      </trkpt>
      <trkpt lat="45.62331" lon="6.67815">
        <ele>1772.424</ele>
        <time>2009-02-19T09:34:04Z</time>
      </trkpt>
      <trkpt lat="45.6235" lon="6.67816">
        <ele>1776.263</ele>
        <time>2009-02-19T09:34:34Z</time>
      </trkpt>
      <trkpt lat="45.62368" lon="6.67813">
        <ele>1778.719</ele>
        <time>2009-02-19T09:34:56Z</time>
      </trkpt>
      <trkpt lat="45.62384" lon="6.67804">
        <ele>1784.705</ele>
        <time>2009-02-19T09:35:27Z</time>
      </trkpt>
      <trkpt lat="45.62403" lon="6.67803">
        <ele>1781.455</ele>
        <time>2009-02-19T09:35:51Z</time>
      </trkpt>
      <trkpt lat="45.62422" lon="6.67799">
        <ele>1782.001</ele>
        <time>2009-02-19T09:36:17Z</time>
      </trkpt>
      <trkpt lat="45.62439" lon="6.67796">
        <ele>1787.466</ele>
        <time>2009-02-19T09:36:52Z</time>
      </trkpt>
      <trkpt lat="45.62456" lon="6.67793">
        <ele>1794.633</ele>
        <time>2009-02-19T09:37:23Z</time>
      </trkpt>
      <trkpt lat="45.62472" lon="6.67789">
        <ele>1802.87</ele>
        <time>2009-02-19T09:37:53Z</time>
      </trkpt>
      <trkpt lat="45.62491" lon="6.67781">
        <ele>1805.447</ele>
        <time>2009-02-19T09:38:22Z</time>
      </trkpt>
      <trkpt lat="45.62506" lon="6.67766">
        <ele>1805.927</ele>
        <time>2009-02-19T09:38:53Z</time>
      </trkpt>
      <trkpt lat="45.62523" lon="6.67755">
        <ele>1808.324</ele>
        <time>2009-02-19T09:39:18Z</time>
      </trkpt>
      <trkpt lat="45.62539" lon="6.67747">
        <ele>1814.6</ele>
        <time>2009-02-19T09:39:47Z</time>
      </trkpt>
      <trkpt lat="45.62557" lon="6.67742">
        <ele>1819.725</ele>
        <time>2009-02-19T09:40:18Z</time>
      </trkpt>
      <trkpt lat="45.62575" lon="6.6774">
        <ele>1822.191</ele>
        <time>2009-02-19T09:40:51Z</time>
      </trkpt>
      <trkpt lat="45.62593" lon="6.67734">
        <ele>1824.803</ele>
        <time>2009-02-19T09:41:21Z</time>
      </trkpt>
      <trkpt lat="45.6261" lon="6.67726">
        <ele>1827.306</ele>
        <time>2009-02-19T09:41:49Z</time>
      </trkpt>
      <trkpt lat="45.62627" lon="6.67714">
        <ele>1831.62</ele>
        <time>2009-02-19T09:42:16Z</time>
      </trkpt>
      <trkpt lat="45.62644" lon="6.67707">
        <ele>1832.227</ele>
        <time>2009-02-19T09:42:42Z</time>
      </trkpt>
      <trkpt lat="45.62662" lon="6.67697">
        <ele>1831.132</ele>
        <time>2009-02-19T09:43:14Z</time>
      </trkpt>
      <trkpt lat="45.62678" lon="6.67686">
        <ele>1830.318</ele>
        <time>2009-02-19T09:43:42Z</time>
      </trkpt>
      <trkpt lat="45.62694" lon="6.67676">
        <ele>1835.983</ele>
        <time>2009-02-19T09:44:22Z</time>
      </trkpt>
      <trkpt lat="45.62709" lon="6.67663">
        <ele>1842.12</ele>
        <time>2009-02-19T09:44:52Z</time>
      </trkpt>
      <trkpt lat="45.62726" lon="6.67657">
        <ele>1846.448</ele>
        <time>2009-02-19T09:45:23Z</time>
      </trkpt>
      <trkpt lat="45.62744" lon="6.67657">
        <ele>1844.371</ele>
        <time>2009-02-19T09:45:51Z</time>
      </trkpt>
      <trkpt lat="45.62761" lon="6.67646">
        <ele>1848.751</ele>
        <time>2009-02-19T09:46:21Z</time>
      </trkpt>
      <trkpt lat="45.62779" lon="6.6764">
        <ele>1847.162</ele>
        <time>2009-02-19T09:46:50Z</time>
      </trkpt>
      <trkpt lat="45.62795" lon="6.67629">
        <ele>1849.647</ele>
        <time>2009-02-19T09:47:24Z</time>
      </trkpt>
      <trkpt lat="45.6281" lon="6.67617">
        <ele>1842.862</ele>
        <time>2009-02-19T09:47:51Z</time>
      </trkpt>
      <trkpt lat="45.62826" lon="6.67605">
        <ele>1839.755</ele>
        <time>2009-02-19T09:48:18Z</time>
      </trkpt>
      <trkpt lat="45.6284" lon="6.67593">
        <ele>1849.291</ele>
        <time>2009-02-19T09:48:43Z</time>
      </trkpt>
      <trkpt lat="45.62857" lon="6.67587">
        <ele>1856.574</ele>
        <time>2009-02-19T09:49:13Z</time>
      </trkpt>
      <trkpt lat="45.62875" lon="6.67587">
        <ele>1861.026</ele>
        <time>2009-02-19T09:49:47Z</time>
      </trkpt>
      <trkpt lat="45.62893" lon="6.67586">
        <ele>1866.378</ele>
        <time>2009-02-19T09:50:18Z</time>
      </trkpt>
      <trkpt lat="45.6291" lon="6.67588">
        <ele>1874.768</ele>
        <time>2009-02-19T09:50:47Z</time>
      </trkpt>
      <trkpt lat="45.62925" lon="6.67592">
        <ele>1885.951</ele>
        <time>2009-02-19T09:51:29Z</time>
      </trkpt>
      <trkpt lat="45.62943" lon="6.67595">
        <ele>1888.106</ele>
        <time>2009-02-19T09:51:52Z</time>
      </trkpt>
      <trkpt lat="45.62961" lon="6.67598">
        <ele>1892.554</ele>
        <time>2009-02-19T09:52:26Z</time>
      </trkpt>
      <trkpt lat="45.62979" lon="6.67605">
        <ele>1895.837</ele>
        <time>2009-02-19T09:53:03Z</time>
      </trkpt>
      <trkpt lat="45.62996" lon="6.67608">
        <ele>1902.049</ele>
        <time>2009-02-19T09:53:28Z</time>
      </trkpt>
      <trkpt lat="45.63014" lon="6.67614">
        <ele>1902.536</ele>
        <time>2009-02-19T09:53:56Z</time>
      </trkpt>
      <trkpt lat="45.63032" lon="6.67616">
        <ele>1906.12</ele>
        <time>2009-02-19T09:55:29Z</time>
      </trkpt>
      <trkpt lat="45.63048" lon="6.67608">
        <ele>1913.358</ele>
        <time>2009-02-19T09:55:58Z</time>
      </trkpt>
      <trkpt lat="45.63066" lon="6.67601">
        <ele>1916.787</ele>
        <time>2009-02-19T09:56:29Z</time>
      </trkpt>
      <trkpt lat="45.63081" lon="6.67586">
        <ele>1920.453</ele>
        <time>2009-02-19T09:56:57Z</time>
      </trkpt>
      <trkpt lat="45.63098" lon="6.67577">
        <ele>1922.489</ele>
        <time>2009-02-19T09:57:20Z</time>
      </trkpt>
      <trkpt lat="45.63116" lon="6.67575">
        <ele>1926.474</ele>
        <time>2009-02-19T09:57:50Z</time>
      </trkpt>
      <trkpt lat="45.63134" lon="6.67571">
        <ele>1929.087</ele>
        <time>2009-02-19T09:58:21Z</time>
      </trkpt>
      <trkpt lat="45.63152" lon="6.67566">
        <ele>1933.594</ele>
        <time>2009-02-19T09:58:52Z</time>
      </trkpt>
      <trkpt lat="45.63168" lon="6.67557">
        <ele>1936.459</ele>
        <time>2009-02-19T09:59:19Z</time>
      </trkpt>
      <trkpt lat="45.63186" lon="6.6755">
        <ele>1939.657</ele>
        <time>2009-02-19T09:59:41Z</time>
      </trkpt>
      <trkpt lat="45.63204" lon="6.67543">
        <ele>1942.361</ele>
        <time>2009-02-19T10:00:06Z</time>
      </trkpt>
      <trkpt lat="45.63221" lon="6.67537">
        <ele>1944.213</ele>
        <time>2009-02-19T10:00:43Z</time>
      </trkpt>
      <trkpt lat="45.63239" lon="6.67528">
        <ele>1946.601</ele>
        <time>2009-02-19T10:01:14Z</time>
      </trkpt>
      <trkpt lat="45.63257" lon="6.67527">
        <ele>1947.925</ele>
        <time>2009-02-19T10:01:36Z</time>
      </trkpt>
      <trkpt lat="45.63275" lon="6.67521">
        <ele>1953.494</ele>
        <time>2009-02-19T10:02:15Z</time>
      </trkpt>
      <trkpt lat="45.63291" lon="6.6751">
        <ele>1958.676</ele>
        <time>2009-02-19T10:03:48Z</time>
      </trkpt>
      <trkpt lat="45.63304" lon="6.67492">
        <ele>1959.562</ele>
        <time>2009-02-19T10:04:07Z</time>
      </trkpt>
      <trkpt lat="45.63318" lon="6.67475">
        <ele>1962.14</ele>
        <time>2009-02-19T10:04:30Z</time>
      </trkpt>
      <trkpt lat="45.63332" lon="6.67458">
        <ele>1966.557</ele>
        <time>2009-02-19T10:04:54Z</time>
      </trkpt>
      <trkpt lat="45.63344" lon="6.6744">
        <ele>1966.635</ele>
        <time>2009-02-19T10:05:50Z</time>
      </trkpt>
      <trkpt lat="45.63358" lon="6.67424">
        <ele>1969.38</ele>
        <time>2009-02-19T10:06:15Z</time>
      </trkpt>
      <trkpt lat="45.63374" lon="6.67412">
        <ele>1973.44</ele>
        <time>2009-02-19T10:06:39Z</time>
      </trkpt>
      <trkpt lat="45.6339" lon="6.67399">
        <ele>1975.086</ele>
        <time>2009-02-19T10:06:56Z</time>
      </trkpt>
      <trkpt lat="45.63404" lon="6.67381">
        <ele>1976.477</ele>
        <time>2009-02-19T10:07:21Z</time>
      </trkpt>
      <trkpt lat="45.63413" lon="6.6736">
        <ele>1980.425</ele>
        <time>2009-02-19T10:07:46Z</time>
      </trkpt>
      <trkpt lat="45.63418" lon="6.67335">
        <ele>1984.15</ele>
        <time>2009-02-19T10:08:07Z</time>
      </trkpt>
      <trkpt lat="45.6342" lon="6.6731">
        <ele>1985.09</ele>
        <time>2009-02-19T10:09:03Z</time>
      </trkpt>
      <trkpt lat="45.63415" lon="6.67285">
        <ele>1987.656</ele>
        <time>2009-02-19T10:09:21Z</time>
      </trkpt>
      <trkpt lat="45.63408" lon="6.67261">
        <ele>1990.395</ele>
        <time>2009-02-19T10:09:42Z</time>
      </trkpt>
      <trkpt lat="45.634" lon="6.67237">
        <ele>1992.532</ele>
        <time>2009-02-19T10:10:07Z</time>
      </trkpt>
      <trkpt lat="45.63393" lon="6.67213">
        <ele>1994.113</ele>
        <time>2009-02-19T10:10:31Z</time>
      </trkpt>
      <trkpt lat="45.63389" lon="6.67186">
        <ele>1997.476</ele>
        <time>2009-02-19T10:11:39Z</time>
      </trkpt>
      <trkpt lat="45.63382" lon="6.67163">
        <ele>1999.639</ele>
        <time>2009-02-19T10:12:01Z</time>
      </trkpt>
      <trkpt lat="45.63371" lon="6.67143">
        <ele>2005.774</ele>
        <time>2009-02-19T10:12:25Z</time>
      </trkpt>
      <trkpt lat="45.6336" lon="6.67124">
        <ele>2009.047</ele>
        <time>2009-02-19T10:12:54Z</time>
      </trkpt>
      <trkpt lat="45.63349" lon="6.67104">
        <ele>2012.061</ele>
        <time>2009-02-19T10:13:28Z</time>
      </trkpt>
      <trkpt lat="45.63335" lon="6.67087">
        <ele>2017.456</ele>
        <time>2009-02-19T10:13:57Z</time>
      </trkpt>
      <trkpt lat="45.63345" lon="6.67065">
        <ele>2020.835</ele>
        <time>2009-02-19T10:14:57Z</time>
      </trkpt>
      <trkpt lat="45.6333" lon="6.6705">
        <ele>2026.408</ele>
        <time>2009-02-19T10:15:43Z</time>
      </trkpt>
      <trkpt lat="45.63315" lon="6.67038">
        <ele>2031.309</ele>
        <time>2009-02-19T10:16:15Z</time>
      </trkpt>
      <trkpt lat="45.63302" lon="6.6702">
        <ele>2037.778</ele>
        <time>2009-02-19T10:16:38Z</time>
      </trkpt>
      <trkpt lat="45.6329" lon="6.67002">
        <ele>2043.409</ele>
        <time>2009-02-19T10:17:15Z</time>
      </trkpt>
      <trkpt lat="45.63277" lon="6.66984">
        <ele>2045.432</ele>
        <time>2009-02-19T10:17:47Z</time>
      </trkpt>
      <trkpt lat="45.63263" lon="6.66969">
        <ele>2050.564</ele>
        <time>2009-02-19T10:18:20Z</time>
      </trkpt>
      <trkpt lat="45.63249" lon="6.66953">
        <ele>2050.186</ele>
        <time>2009-02-19T10:18:53Z</time>
      </trkpt>
      <trkpt lat="45.63234" lon="6.66939">
        <ele>2055.796</ele>
        <time>2009-02-19T10:19:17Z</time>
      </trkpt>
      <trkpt lat="45.63218" lon="6.66928">
        <ele>2060.261</ele>
        <time>2009-02-19T10:19:55Z</time>
      </trkpt>
      <trkpt lat="45.63211" lon="6.66903">
        <ele>2061.799</ele>
        <time>2009-02-19T10:27:51Z</time>
      </trkpt>
      <trkpt lat="45.63204" lon="6.66879">
        <ele>2061.951</ele>
        <time>2009-02-19T10:28:17Z</time>
      </trkpt>
      <trkpt lat="45.63202" lon="6.66854">
        <ele>2066.75</ele>
        <time>2009-02-19T10:28:47Z</time>
      </trkpt>
      <trkpt lat="45.63199" lon="6.66828">
        <ele>2067.128</ele>
        <time>2009-02-19T10:29:17Z</time>
      </trkpt>
      <trkpt lat="45.63198" lon="6.66802">
        <ele>2069.653</ele>
        <time>2009-02-19T10:29:39Z</time>
      </trkpt>
      <trkpt lat="45.63199" lon="6.66776">
        <ele>2070.686</ele>
        <time>2009-02-19T10:30:06Z</time>
      </trkpt>
      <trkpt lat="45.632" lon="6.6675">
        <ele>2072.305</ele>
        <time>2009-02-19T10:30:31Z</time>
      </trkpt>
      <trkpt lat="45.63199" lon="6.66725">
        <ele>2074.855</ele>
        <time>2009-02-19T10:31:00Z</time>
      </trkpt>
      <trkpt lat="45.63193" lon="6.66701">
        <ele>2078.793</ele>
        <time>2009-02-19T10:31:32Z</time>
      </trkpt>
      <trkpt lat="45.6319" lon="6.66677">
        <ele>2085.464</ele>
        <time>2009-02-19T10:31:58Z</time>
      </trkpt>
      <trkpt lat="45.63183" lon="6.66653">
        <ele>2086.268</ele>
        <time>2009-02-19T10:32:25Z</time>
      </trkpt>
      <trkpt lat="45.63173" lon="6.66631">
        <ele>2088.715</ele>
        <time>2009-02-19T10:32:54Z</time>
      </trkpt>
      <trkpt lat="45.63166" lon="6.66608">
        <ele>2091.632</ele>
        <time>2009-02-19T10:33:37Z</time>
      </trkpt>
      <trkpt lat="45.6315" lon="6.66616">
        <ele>2098.122</ele>
        <time>2009-02-19T10:34:20Z</time>
      </trkpt>
      <trkpt lat="45.63134" lon="6.66625">
        <ele>2104.362</ele>
        <time>2009-02-19T10:35:07Z</time>
      </trkpt>
      <trkpt lat="45.63117" lon="6.66616">
        <ele>2109.524</ele>
        <time>2009-02-19T10:36:09Z</time>
      </trkpt>
      <trkpt lat="45.6311" lon="6.66593">
        <ele>2114.515</ele>
        <time>2009-02-19T10:36:47Z</time>
      </trkpt>
      <trkpt lat="45.63106" lon="6.66569">
        <ele>2119.699</ele>
        <time>2009-02-19T10:37:33Z</time>
      </trkpt>
      <trkpt lat="45.63104" lon="6.66544">
        <ele>2123.612</ele>
        <time>2009-02-19T10:38:12Z</time>
      </trkpt>
      <trkpt lat="45.631" lon="6.6652">
        <ele>2129.164</ele>
        <time>2009-02-19T10:38:47Z</time>
      </trkpt>
      <trkpt lat="45.6309" lon="6.66499">
        <ele>2135.246</ele>
        <time>2009-02-19T10:39:52Z</time>
      </trkpt>
      <trkpt lat="45.63074" lon="6.66487">
        <ele>2138.849</ele>
        <time>2009-02-19T10:40:10Z</time>
      </trkpt>
      <trkpt lat="45.63058" lon="6.66473">
        <ele>2141.908</ele>
        <time>2009-02-19T10:40:29Z</time>
      </trkpt>
      <trkpt lat="45.63045" lon="6.66455">
        <ele>2143.603</ele>
        <time>2009-02-19T10:40:49Z</time>
      </trkpt>
      <trkpt lat="45.6303" lon="6.66439">
        <ele>2142.619</ele>
        <time>2009-02-19T10:41:11Z</time>
      </trkpt>
      <trkpt lat="45.63013" lon="6.66427">
        <ele>2138.636</ele>
        <time>2009-02-19T10:41:33Z</time>
      </trkpt>
      <trkpt lat="45.62996" lon="6.66419">
        <ele>2139.77</ele>
        <time>2009-02-19T10:42:03Z</time>
      </trkpt>
      <trkpt lat="45.62981" lon="6.66404">
        <ele>2145.731</ele>
        <time>2009-02-19T10:42:26Z</time>
      </trkpt>
      <trkpt lat="45.62967" lon="6.66389">
        <ele>2148.46</ele>
        <time>2009-02-19T10:43:02Z</time>
      </trkpt>
      <trkpt lat="45.62951" lon="6.66376">
        <ele>2153.084</ele>
        <time>2009-02-19T10:43:35Z</time>
      </trkpt>
      <trkpt lat="45.62935" lon="6.66366">
        <ele>2158.414</ele>
        <time>2009-02-19T10:44:16Z</time>
      </trkpt>
      <trkpt lat="45.62918" lon="6.66358">
        <ele>2163.581</ele>
        <time>2009-02-19T10:44:57Z</time>
      </trkpt>
      <trkpt lat="45.62903" lon="6.66346">
        <ele>2171.341</ele>
        <time>2009-02-19T10:45:37Z</time>
      </trkpt>
      <trkpt lat="45.62887" lon="6.66335">
        <ele>2174.909</ele>
        <time>2009-02-19T10:46:17Z</time>
      </trkpt>
      <trkpt lat="45.62871" lon="6.66326">
        <ele>2181.062</ele>
        <time>2009-02-19T10:47:09Z</time>
      </trkpt>
      <trkpt lat="45.62858" lon="6.6631">
        <ele>2187.807</ele>
        <time>2009-02-19T10:47:38Z</time>
      </trkpt>
      <trkpt lat="45.62843" lon="6.66295">
        <ele>2193.608</ele>
        <time>2009-02-19T10:48:15Z</time>
      </trkpt>
      <trkpt lat="45.62829" lon="6.66283">
        <ele>2200.875</ele>
        <time>2009-02-19T10:48:42Z</time>
      </trkpt>
      <trkpt lat="45.62812" lon="6.6627">
        <ele>2197.462</ele>
        <time>2009-02-19T10:49:08Z</time>
      </trkpt>
      <trkpt lat="45.62797" lon="6.66258">
        <ele>2203.106</ele>
        <time>2009-02-19T10:49:39Z</time>
      </trkpt>
      <trkpt lat="45.62781" lon="6.66247">
        <ele>2210.019</ele>
        <time>2009-02-19T10:50:09Z</time>
      </trkpt>
      <trkpt lat="45.62764" lon="6.66239">
        <ele>2215.766</ele>
        <time>2009-02-19T10:50:39Z</time>
      </trkpt>
      <trkpt lat="45.62747" lon="6.66234">
        <ele>2218.787</ele>
        <time>2009-02-19T10:51:13Z</time>
      </trkpt>
      <trkpt lat="45.62729" lon="6.66229">
        <ele>2218.12</ele>
        <time>2009-02-19T10:51:55Z</time>
      </trkpt>
      <trkpt lat="45.62712" lon="6.66223">
        <ele>2224.613</ele>
        <time>2009-02-19T10:52:39Z</time>
      </trkpt>
      <trkpt lat="45.62696" lon="6.66225">
        <ele>2234.774</ele>
        <time>2009-02-19T10:54:15Z</time>
      </trkpt>
      <trkpt lat="45.62679" lon="6.6622">
        <ele>2240.982</ele>
        <time>2009-02-19T10:54:53Z</time>
      </trkpt>
      <trkpt lat="45.62664" lon="6.66211">
        <ele>2249.624</ele>
        <time>2009-02-19T10:55:27Z</time>
      </trkpt>
      <trkpt lat="45.62647" lon="6.66201">
        <ele>2252.07</ele>
        <time>2009-02-19T10:55:58Z</time>
      </trkpt>
      <trkpt lat="45.6263" lon="6.6619">
        <ele>2253.665</ele>
        <time>2009-02-19T10:56:29Z</time>
      </trkpt>
      <trkpt lat="45.62613" lon="6.66181">
        <ele>2256.656</ele>
        <time>2009-02-19T10:57:00Z</time>
      </trkpt>
      <trkpt lat="45.62596" lon="6.66171">
        <ele>2256.875</ele>
        <time>2009-02-19T10:57:34Z</time>
      </trkpt>
      <trkpt lat="45.6258" lon="6.66162">
        <ele>2261.813</ele>
        <time>2009-02-19T10:58:09Z</time>
      </trkpt>
      <trkpt lat="45.62565" lon="6.66151">
        <ele>2269.041</ele>
        <time>2009-02-19T10:58:44Z</time>
      </trkpt>
      <trkpt lat="45.62549" lon="6.66142">
        <ele>2274.963</ele>
        <time>2009-02-19T10:59:15Z</time>
      </trkpt>
      <trkpt lat="45.62534" lon="6.66127">
        <ele>2280.59</ele>
        <time>2009-02-19T11:00:58Z</time>
      </trkpt>
      <trkpt lat="45.62521" lon="6.6611">
        <ele>2287.535</ele>
        <time>2009-02-19T11:01:23Z</time>
      </trkpt>
      <trkpt lat="45.62506" lon="6.66095">
        <ele>2290.378</ele>
        <time>2009-02-19T11:01:52Z</time>
      </trkpt>
      <trkpt lat="45.62493" lon="6.66076">
        <ele>2292.172</ele>
        <time>2009-02-19T11:03:44Z</time>
      </trkpt>
      <trkpt lat="45.6248" lon="6.66061">
        <ele>2298.622</ele>
        <time>2009-02-19T11:04:19Z</time>
      </trkpt>
      <trkpt lat="45.62466" lon="6.66044">
        <ele>2301.637</ele>
        <time>2009-02-19T11:04:59Z</time>
      </trkpt>
      <trkpt lat="45.62451" lon="6.66031">
        <ele>2306.466</ele>
        <time>2009-02-19T11:05:39Z</time>
      </trkpt>
      <trkpt lat="45.62436" lon="6.66017">
        <ele>2312.581</ele>
        <time>2009-02-19T11:06:16Z</time>
      </trkpt>
      <trkpt lat="45.6242" lon="6.66004">
        <ele>2316.375</ele>
        <time>2009-02-19T11:07:03Z</time>
      </trkpt>
      <trkpt lat="45.62404" lon="6.65993">
        <ele>2319.879</ele>
        <time>2009-02-19T11:07:51Z</time>
      </trkpt>
      <trkpt lat="45.62393" lon="6.65975">
        <ele>2330.012</ele>
        <time>2009-02-19T11:08:30Z</time>
      </trkpt>
      <trkpt lat="45.6238" lon="6.65959">
        <ele>2334.302</ele>
        <time>2009-02-19T11:09:15Z</time>
      </trkpt>
      <trkpt lat="45.62365" lon="6.65946">
        <ele>2340.16</ele>
        <time>2009-02-19T11:10:11Z</time>
      </trkpt>
      <trkpt lat="45.62354" lon="6.65926">
        <ele>2345.722</ele>
        <time>2009-02-19T11:10:52Z</time>
      </trkpt>
      <trkpt lat="45.62341" lon="6.6591">
        <ele>2352.976</ele>
        <time>2009-02-19T11:11:33Z</time>
      </trkpt>
      <trkpt lat="45.62331" lon="6.65891">
        <ele>2360.008</ele>
        <time>2009-02-19T11:12:16Z</time>
      </trkpt>
      <trkpt lat="45.62318" lon="6.65873">
        <ele>2366.036</ele>
        <time>2009-02-19T11:12:57Z</time>
      </trkpt>
      <trkpt lat="45.62306" lon="6.65857">
        <ele>2371.791</ele>
        <time>2009-02-19T11:13:36Z</time>
      </trkpt>
      <trkpt lat="45.62288" lon="6.65852">
        <ele>2376.404</ele>
        <time>2009-02-19T11:14:15Z</time>
      </trkpt>
      <trkpt lat="45.62273" lon="6.65867">
        <ele>2380.163</ele>
        <time>2009-02-19T11:16:01Z</time>
      </trkpt>
      <trkpt lat="45.62258" lon="6.65882">
        <ele>2382.953</ele>
        <time>2009-02-19T11:16:29Z</time>
      </trkpt>
      <trkpt lat="45.62243" lon="6.65896">
        <ele>2386.843</ele>
        <time>2009-02-19T11:16:53Z</time>
      </trkpt>
      <trkpt lat="45.62248" lon="6.65921">
        <ele>2389.49</ele>
        <time>2009-02-19T11:17:22Z</time>
      </trkpt>
      <trkpt lat="45.62231" lon="6.6593">
        <ele>2393.39</ele>
        <time>2009-02-19T11:19:23Z</time>
      </trkpt>
      <trkpt lat="45.62213" lon="6.65931">
        <ele>2394.949</ele>
        <time>2009-02-19T11:20:31Z</time>
      </trkpt>
      <trkpt lat="45.62194" lon="6.65929">
        <ele>2394.567</ele>
        <time>2009-02-19T11:20:50Z</time>
      </trkpt>
      <trkpt lat="45.62176" lon="6.6593">
        <ele>2392.983</ele>
        <time>2009-02-19T11:21:13Z</time>
      </trkpt>
      <trkpt lat="45.62158" lon="6.65932">
        <ele>2397.404</ele>
        <time>2009-02-19T11:21:36Z</time>
      </trkpt>
      <trkpt lat="45.62139" lon="6.65933">
        <ele>2399.864</ele>
        <time>2009-02-19T11:22:01Z</time>
      </trkpt>
      <trkpt lat="45.62121" lon="6.65932">
        <ele>2398.237</ele>
        <time>2009-02-19T11:22:22Z</time>
      </trkpt>
      <trkpt lat="45.62104" lon="6.65941">
        <ele>2401.182</ele>
        <time>2009-02-19T11:22:47Z</time>
      </trkpt>
      <trkpt lat="45.62088" lon="6.65952">
        <ele>2405.339</ele>
        <time>2009-02-19T11:23:15Z</time>
      </trkpt>
      <trkpt lat="45.62071" lon="6.65961">
        <ele>2407.721</ele>
        <time>2009-02-19T11:23:58Z</time>
      </trkpt>
      <trkpt lat="45.62055" lon="6.65969">
        <ele>2412.29</ele>
        <time>2009-02-19T11:24:51Z</time>
      </trkpt>
      <trkpt lat="45.62039" lon="6.65982">
        <ele>2415.851</ele>
        <time>2009-02-19T11:27:06Z</time>
      </trkpt>
      <trkpt lat="45.62039" lon="6.66006">
        <ele>2424.455</ele>
        <time>2009-02-19T11:30:55Z</time>
      </trkpt>
      <trkpt lat="45.6205" lon="6.66024">
        <ele>2431.63</ele>
        <time>2009-02-19T11:32:32Z</time>
      </trkpt>
      <trkpt lat="45.62065" lon="6.66029">
        <ele>2442.158</ele>
        <time>2009-02-19T11:35:49Z</time>
      </trkpt>
      <trkpt lat="45.62083" lon="6.66029">
        <ele>2446.055</ele>
        <time>2009-02-19T11:46:40Z</time>
      </trkpt>
      <trkpt lat="45.62094" lon="6.66046">
        <ele>2456.584</ele>
        <time>2009-02-19T11:56:53Z</time>
      </trkpt>
      <trkpt lat="45.62096" lon="6.66066">
        <ele>2468.873</ele>
        <time>2009-02-19T12:00:33Z</time>
      </trkpt>
      <trkpt lat="45.62108" lon="6.66082">
        <ele>2478.133</ele>
        <time>2009-02-19T12:04:28Z</time>
      </trkpt>
      <trkpt lat="45.6212" lon="6.661">
        <ele>2483.234</ele>
        <time>2009-02-19T12:04:55Z</time>
      </trkpt>
      <trkpt lat="45.62137" lon="6.66103">
        <ele>2488.467</ele>
        <time>2009-02-19T12:05:50Z</time>
      </trkpt>
      <trkpt lat="45.62155" lon="6.66109">
        <ele>2492.257</ele>
        <time>2009-02-19T12:06:26Z</time>
      </trkpt>
      <trkpt lat="45.62173" lon="6.66114">
        <ele>2495.209</ele>
        <time>2009-02-19T12:11:03Z</time>
      </trkpt>
      <trkpt lat="45.62155" lon="6.66107">
        <ele>2491.107</ele>
        <time>2009-02-19T12:49:52Z</time>
      </trkpt>
      <trkpt lat="45.62139" lon="6.66099">
        <ele>2487.048</ele>
        <time>2009-02-19T12:50:00Z</time>
      </trkpt>
      <trkpt lat="45.62122" lon="6.66091">
        <ele>2480.417</ele>
        <time>2009-02-19T12:50:07Z</time>
      </trkpt>
      <trkpt lat="45.62103" lon="6.66091">
        <ele>2474.202</ele>
        <time>2009-02-19T12:50:13Z</time>
      </trkpt>
      <trkpt lat="45.62083" lon="6.66085">
        <ele>2467.912</ele>
        <time>2009-02-19T12:50:19Z</time>
      </trkpt>
      <trkpt lat="45.62064" lon="6.66082">
        <ele>2463.821</ele>
        <time>2009-02-19T12:50:23Z</time>
      </trkpt>
      <trkpt lat="45.62044" lon="6.66084">
        <ele>2460.952</ele>
        <time>2009-02-19T12:50:28Z</time>
      </trkpt>
      <trkpt lat="45.62025" lon="6.66078">
        <ele>2457.02</ele>
        <time>2009-02-19T12:50:33Z</time>
      </trkpt>
      <trkpt lat="45.62006" lon="6.66074">
        <ele>2450.217</ele>
        <time>2009-02-19T12:50:46Z</time>
      </trkpt>
      <trkpt lat="45.6199" lon="6.6606">
        <ele>2442.574</ele>
        <time>2009-02-19T12:50:54Z</time>
      </trkpt>
      <trkpt lat="45.6197" lon="6.66061">
        <ele>2436.343</ele>
        <time>2009-02-19T12:51:00Z</time>
      </trkpt>
      <trkpt lat="45.61954" lon="6.66049">
        <ele>2432.564</ele>
        <time>2009-02-19T12:51:04Z</time>
      </trkpt>
      <trkpt lat="45.61935" lon="6.66041">
        <ele>2428.154</ele>
        <time>2009-02-19T12:51:09Z</time>
      </trkpt>
      <trkpt lat="45.61949" lon="6.66022">
        <ele>2422.106</ele>
        <time>2009-02-19T12:53:16Z</time>
      </trkpt>
      <trkpt lat="45.61966" lon="6.66013">
        <ele>2422.666</ele>
        <time>2009-02-19T12:53:25Z</time>
      </trkpt>
      <trkpt lat="45.61987" lon="6.65999">
        <ele>2418.197</ele>
        <time>2009-02-19T12:53:34Z</time>
      </trkpt>
      <trkpt lat="45.62005" lon="6.65989">
        <ele>2415.408</ele>
        <time>2009-02-19T12:53:38Z</time>
      </trkpt>
      <trkpt lat="45.6202" lon="6.65972">
        <ele>2413.866</ele>
        <time>2009-02-19T12:53:44Z</time>
      </trkpt>
      <trkpt lat="45.62037" lon="6.65957">
        <ele>2409.434</ele>
        <time>2009-02-19T12:53:52Z</time>
      </trkpt>
      <trkpt lat="45.62057" lon="6.65951">
        <ele>2406.206</ele>
        <time>2009-02-19T12:53:59Z</time>
      </trkpt>
      <trkpt lat="45.62075" lon="6.65947">
        <ele>2403.261</ele>
        <time>2009-02-19T12:54:11Z</time>
      </trkpt>
      <trkpt lat="45.62095" lon="6.65939">
        <ele>2402.653</ele>
        <time>2009-02-19T12:54:21Z</time>
      </trkpt>
      <trkpt lat="45.62112" lon="6.65928">
        <ele>2400.024</ele>
        <time>2009-02-19T12:54:26Z</time>
      </trkpt>
      <trkpt lat="45.6213" lon="6.65927">
        <ele>2399.853</ele>
        <time>2009-02-19T12:54:31Z</time>
      </trkpt>
      <trkpt lat="45.6215" lon="6.65923">
        <ele>2399.876</ele>
        <time>2009-02-19T12:54:44Z</time>
      </trkpt>
      <trkpt lat="45.62168" lon="6.6592">
        <ele>2397.305</ele>
        <time>2009-02-19T12:54:50Z</time>
      </trkpt>
      <trkpt lat="45.62187" lon="6.65914">
        <ele>2396.372</ele>
        <time>2009-02-19T12:54:55Z</time>
      </trkpt>
      <trkpt lat="45.62206" lon="6.65912">
        <ele>2393.581</ele>
        <time>2009-02-19T12:55:03Z</time>
      </trkpt>
      <trkpt lat="45.62224" lon="6.65911">
        <ele>2389.422</ele>
        <time>2009-02-19T12:55:53Z</time>
      </trkpt>
      <trkpt lat="45.62241" lon="6.65898">
        <ele>2386.515</ele>
        <time>2009-02-19T12:56:02Z</time>
      </trkpt>
      <trkpt lat="45.62257" lon="6.65883">
        <ele>2382.698</ele>
        <time>2009-02-19T12:56:07Z</time>
      </trkpt>
      <trkpt lat="45.62273" lon="6.65869">
        <ele>2380.807</ele>
        <time>2009-02-19T12:56:12Z</time>
      </trkpt>
      <trkpt lat="45.62292" lon="6.65866">
        <ele>2375.806</ele>
        <time>2009-02-19T12:56:19Z</time>
      </trkpt>
      <trkpt lat="45.62309" lon="6.65866">
        <ele>2366.68</ele>
        <time>2009-02-19T12:56:42Z</time>
      </trkpt>
      <trkpt lat="45.62319" lon="6.65892">
        <ele>2362.191</ele>
        <time>2009-02-19T12:56:46Z</time>
      </trkpt>
      <trkpt lat="45.62325" lon="6.65919">
        <ele>2359.123</ele>
        <time>2009-02-19T12:56:50Z</time>
      </trkpt>
      <trkpt lat="45.62331" lon="6.65946">
        <ele>2356.943</ele>
        <time>2009-02-19T12:56:55Z</time>
      </trkpt>
      <trkpt lat="45.62337" lon="6.65971">
        <ele>2354.4</ele>
        <time>2009-02-19T12:57:01Z</time>
      </trkpt>
      <trkpt lat="45.62344" lon="6.65993">
        <ele>2349.348</ele>
        <time>2009-02-19T12:57:08Z</time>
      </trkpt>
      <trkpt lat="45.62361" lon="6.65991">
        <ele>2340.016</ele>
        <time>2009-02-19T12:57:15Z</time>
      </trkpt>
      <trkpt lat="45.62379" lon="6.65993">
        <ele>2327.644</ele>
        <time>2009-02-19T12:57:22Z</time>
      </trkpt>
      <trkpt lat="45.62395" lon="6.66002">
        <ele>2320.76</ele>
        <time>2009-02-19T12:57:27Z</time>
      </trkpt>
      <trkpt lat="45.62411" lon="6.66017">
        <ele>2314.691</ele>
        <time>2009-02-19T12:57:31Z</time>
      </trkpt>
      <trkpt lat="45.62427" lon="6.66033">
        <ele>2309.634</ele>
        <time>2009-02-19T12:57:35Z</time>
      </trkpt>
      <trkpt lat="45.62442" lon="6.66046">
        <ele>2306.102</ele>
        <time>2009-02-19T12:57:39Z</time>
      </trkpt>
      <trkpt lat="45.62458" lon="6.6606">
        <ele>2301.068</ele>
        <time>2009-02-19T12:57:43Z</time>
      </trkpt>
      <trkpt lat="45.62474" lon="6.66079">
        <ele>2296.375</ele>
        <time>2009-02-19T12:57:47Z</time>
      </trkpt>
      <trkpt lat="45.62489" lon="6.66095">
        <ele>2290.848</ele>
        <time>2009-02-19T12:57:51Z</time>
      </trkpt>
      <trkpt lat="45.62502" lon="6.66113">
        <ele>2286.25</ele>
        <time>2009-02-19T12:57:56Z</time>
      </trkpt>
      <trkpt lat="45.62515" lon="6.66135">
        <ele>2281.299</ele>
        <time>2009-02-19T12:59:05Z</time>
      </trkpt>
      <trkpt lat="45.62528" lon="6.66158">
        <ele>2277.895</ele>
        <time>2009-02-19T12:59:09Z</time>
      </trkpt>
      <trkpt lat="45.62543" lon="6.66182">
        <ele>2274.521</ele>
        <time>2009-02-19T12:59:13Z</time>
      </trkpt>
      <trkpt lat="45.62558" lon="6.66208">
        <ele>2269.326</ele>
        <time>2009-02-19T12:59:17Z</time>
      </trkpt>
      <trkpt lat="45.6257" lon="6.66229">
        <ele>2266.542</ele>
        <time>2009-02-19T12:59:20Z</time>
      </trkpt>
      <trkpt lat="45.62586" lon="6.66242">
        <ele>2265.323</ele>
        <time>2009-02-19T12:59:27Z</time>
      </trkpt>
      <trkpt lat="45.62604" lon="6.66249">
        <ele>2261.223</ele>
        <time>2009-02-19T12:59:35Z</time>
      </trkpt>
      <trkpt lat="45.62621" lon="6.66246">
        <ele>2254.352</ele>
        <time>2009-02-19T12:59:39Z</time>
      </trkpt>
      <trkpt lat="45.62638" lon="6.66246">
        <ele>2247.793</ele>
        <time>2009-02-19T12:59:43Z</time>
      </trkpt>
      <trkpt lat="45.62655" lon="6.66242">
        <ele>2242.857</ele>
        <time>2009-02-19T12:59:47Z</time>
      </trkpt>
      <trkpt lat="45.62675" lon="6.66242">
        <ele>2239.466</ele>
        <time>2009-02-19T12:59:52Z</time>
      </trkpt>
      <trkpt lat="45.62693" lon="6.66251">
        <ele>2235.735</ele>
        <time>2009-02-19T12:59:57Z</time>
      </trkpt>
      <trkpt lat="45.62711" lon="6.66248">
        <ele>2229.139</ele>
        <time>2009-02-19T13:00:15Z</time>
      </trkpt>
      <trkpt lat="45.62727" lon="6.66242">
        <ele>2220.043</ele>
        <time>2009-02-19T13:00:21Z</time>
      </trkpt>
      <trkpt lat="45.62744" lon="6.66245">
        <ele>2212.198</ele>
        <time>2009-02-19T13:00:26Z</time>
      </trkpt>
      <trkpt lat="45.62764" lon="6.6625">
        <ele>2204.768</ele>
        <time>2009-02-19T13:00:30Z</time>
      </trkpt>
      <trkpt lat="45.62782" lon="6.66261">
        <ele>2200.732</ele>
        <time>2009-02-19T13:00:34Z</time>
      </trkpt>
      <trkpt lat="45.62801" lon="6.66273">
        <ele>2197.042</ele>
        <time>2009-02-19T13:00:40Z</time>
      </trkpt>
      <trkpt lat="45.62819" lon="6.66285">
        <ele>2194.541</ele>
        <time>2009-02-19T13:00:44Z</time>
      </trkpt>
      <trkpt lat="45.62832" lon="6.66304">
        <ele>2190.949</ele>
        <time>2009-02-19T13:01:56Z</time>
      </trkpt>
      <trkpt lat="45.62846" lon="6.66325">
        <ele>2185.413</ele>
        <time>2009-02-19T13:02:01Z</time>
      </trkpt>
      <trkpt lat="45.62862" lon="6.66342">
        <ele>2180.984</ele>
        <time>2009-02-19T13:02:05Z</time>
      </trkpt>
      <trkpt lat="45.62879" lon="6.66355">
        <ele>2178.547</ele>
        <time>2009-02-19T13:02:09Z</time>
      </trkpt>
      <trkpt lat="45.62894" lon="6.66374">
        <ele>2174.21</ele>
        <time>2009-02-19T13:02:15Z</time>
      </trkpt>
      <trkpt lat="45.62906" lon="6.66397">
        <ele>2170.506</ele>
        <time>2009-02-19T13:02:21Z</time>
      </trkpt>
      <trkpt lat="45.62917" lon="6.66419">
        <ele>2166.89</ele>
        <time>2009-02-19T13:02:29Z</time>
      </trkpt>
      <trkpt lat="45.62934" lon="6.66425">
        <ele>2157.507</ele>
        <time>2009-02-19T13:02:35Z</time>
      </trkpt>
      <trkpt lat="45.62952" lon="6.6644">
        <ele>2149.448</ele>
        <time>2009-02-19T13:02:40Z</time>
      </trkpt>
      <trkpt lat="45.62968" lon="6.6645">
        <ele>2141.696</ele>
        <time>2009-02-19T13:02:44Z</time>
      </trkpt>
      <trkpt lat="45.62987" lon="6.66457">
        <ele>2135.213</ele>
        <time>2009-02-19T13:02:48Z</time>
      </trkpt>
      <trkpt lat="45.63007" lon="6.66467">
        <ele>2130.357</ele>
        <time>2009-02-19T13:02:52Z</time>
      </trkpt>
      <trkpt lat="45.63024" lon="6.66474">
        <ele>2129.666</ele>
        <time>2009-02-19T13:02:56Z</time>
      </trkpt>
      <trkpt lat="45.63039" lon="6.66494">
        <ele>2126.595</ele>
        <time>2009-02-19T13:04:16Z</time>
      </trkpt>
      <trkpt lat="45.63052" lon="6.66516">
        <ele>2123.412</ele>
        <time>2009-02-19T13:04:21Z</time>
      </trkpt>
      <trkpt lat="45.63066" lon="6.6654">
        <ele>2117.49</ele>
        <time>2009-02-19T13:04:26Z</time>
      </trkpt>
      <trkpt lat="45.63077" lon="6.66566">
        <ele>2112.141</ele>
        <time>2009-02-19T13:04:30Z</time>
      </trkpt>
      <trkpt lat="45.63079" lon="6.66594">
        <ele>2108.378</ele>
        <time>2009-02-19T13:04:34Z</time>
      </trkpt>
      <trkpt lat="45.63083" lon="6.66619">
        <ele>2104.292</ele>
        <time>2009-02-19T13:04:38Z</time>
      </trkpt>
      <trkpt lat="45.63085" lon="6.66646">
        <ele>2102.118</ele>
        <time>2009-02-19T13:04:42Z</time>
      </trkpt>
      <trkpt lat="45.63093" lon="6.66668">
        <ele>2093.66</ele>
        <time>2009-02-19T13:04:52Z</time>
      </trkpt>
      <trkpt lat="45.63109" lon="6.66681">
        <ele>2084.856</ele>
        <time>2009-02-19T13:04:59Z</time>
      </trkpt>
      <trkpt lat="45.63118" lon="6.66703">
        <ele>2078.023</ele>
        <time>2009-02-19T13:05:03Z</time>
      </trkpt>
      <trkpt lat="45.6312" lon="6.66733">
        <ele>2074.618</ele>
        <time>2009-02-19T13:05:09Z</time>
      </trkpt>
      <trkpt lat="45.63126" lon="6.66759">
        <ele>2071.629</ele>
        <time>2009-02-19T13:05:13Z</time>
      </trkpt>
      <trkpt lat="45.63137" lon="6.66784">
        <ele>2068.731</ele>
        <time>2009-02-19T13:05:17Z</time>
      </trkpt>
      <trkpt lat="45.63145" lon="6.66811">
        <ele>2065.937</ele>
        <time>2009-02-19T13:05:21Z</time>
      </trkpt>
      <trkpt lat="45.63152" lon="6.66835">
        <ele>2064.936</ele>
        <time>2009-02-19T13:05:25Z</time>
      </trkpt>
      <trkpt lat="45.63158" lon="6.66864">
        <ele>2062.256</ele>
        <time>2009-02-19T13:05:30Z</time>
      </trkpt>
      <trkpt lat="45.63155" lon="6.66891">
        <ele>2060.364</ele>
        <time>2009-02-19T13:06:05Z</time>
      </trkpt>
      <trkpt lat="45.63152" lon="6.66918">
        <ele>2059.538</ele>
        <time>2009-02-19T13:06:13Z</time>
      </trkpt>
      <trkpt lat="45.63143" lon="6.6694">
        <ele>2057.3</ele>
        <time>2009-02-19T13:06:50Z</time>
      </trkpt>
      <trkpt lat="45.63131" lon="6.66962">
        <ele>2054.685</ele>
        <time>2009-02-19T13:06:57Z</time>
      </trkpt>
      <trkpt lat="45.63116" lon="6.66981">
        <ele>2050.205</ele>
        <time>2009-02-19T13:07:02Z</time>
      </trkpt>
      <trkpt lat="45.63101" lon="6.67002">
        <ele>2046.775</ele>
        <time>2009-02-19T13:07:06Z</time>
      </trkpt>
      <trkpt lat="45.6309" lon="6.67023">
        <ele>2045.049</ele>
        <time>2009-02-19T13:07:10Z</time>
      </trkpt>
      <trkpt lat="45.63078" lon="6.67046">
        <ele>2042.393</ele>
        <time>2009-02-19T13:07:15Z</time>
      </trkpt>
      <trkpt lat="45.63063" lon="6.67062">
        <ele>2036.523</ele>
        <time>2009-02-19T13:07:22Z</time>
      </trkpt>
      <trkpt lat="45.63047" lon="6.67074">
        <ele>2033.372</ele>
        <time>2009-02-19T13:07:27Z</time>
      </trkpt>
      <trkpt lat="45.63038" lon="6.67098">
        <ele>2026.344</ele>
        <time>2009-02-19T13:07:33Z</time>
      </trkpt>
      <trkpt lat="45.63026" lon="6.67121">
        <ele>2024.077</ele>
        <time>2009-02-19T13:07:56Z</time>
      </trkpt>
      <trkpt lat="45.63013" lon="6.6714">
        <ele>2022.356</ele>
        <time>2009-02-19T13:08:01Z</time>
      </trkpt>
      <trkpt lat="45.62998" lon="6.67159">
        <ele>2019.46</ele>
        <time>2009-02-19T13:08:08Z</time>
      </trkpt>
      <trkpt lat="45.62988" lon="6.6718">
        <ele>2016.885</ele>
        <time>2009-02-19T13:08:13Z</time>
      </trkpt>
      <trkpt lat="45.6299" lon="6.67205">
        <ele>2011.029</ele>
        <time>2009-02-19T13:08:19Z</time>
      </trkpt>
      <trkpt lat="45.62996" lon="6.67226">
        <ele>1999.117</ele>
        <time>2009-02-19T13:08:27Z</time>
      </trkpt>
      <trkpt lat="45.63008" lon="6.67246">
        <ele>1992</ele>
        <time>2009-02-19T13:08:36Z</time>
      </trkpt>
      <trkpt lat="45.63011" lon="6.67268">
        <ele>1981.539</ele>
        <time>2009-02-19T13:08:54Z</time>
      </trkpt>
      <trkpt lat="45.63016" lon="6.67288">
        <ele>1969.717</ele>
        <time>2009-02-19T13:09:04Z</time>
      </trkpt>
      <trkpt lat="45.63016" lon="6.67309">
        <ele>1958.109</ele>
        <time>2009-02-19T13:11:12Z</time>
      </trkpt>
      <trkpt lat="45.63031" lon="6.67325">
        <ele>1952.36</ele>
        <time>2009-02-19T13:11:23Z</time>
      </trkpt>
      <trkpt lat="45.63027" lon="6.67346">
        <ele>1939.801</ele>
        <time>2009-02-19T13:12:14Z</time>
      </trkpt>
      <trkpt lat="45.63037" lon="6.67366">
        <ele>1925.815</ele>
        <time>2009-02-19T13:12:23Z</time>
      </trkpt>
      <trkpt lat="45.63047" lon="6.67378">
        <ele>1913.052</ele>
        <time>2009-02-19T13:12:44Z</time>
      </trkpt>
      <trkpt lat="45.63043" lon="6.67404">
        <ele>1905.102</ele>
        <time>2009-02-19T13:15:37Z</time>
      </trkpt>
      <trkpt lat="45.63029" lon="6.67421">
        <ele>1902.455</ele>
        <time>2009-02-19T13:15:43Z</time>
      </trkpt>
      <trkpt lat="45.63015" lon="6.67441">
        <ele>1898.357</ele>
        <time>2009-02-19T13:15:47Z</time>
      </trkpt>
      <trkpt lat="45.63001" lon="6.67457">
        <ele>1896.481</ele>
        <time>2009-02-19T13:15:51Z</time>
      </trkpt>
      <trkpt lat="45.62987" lon="6.67477">
        <ele>1894.736</ele>
        <time>2009-02-19T13:15:57Z</time>
      </trkpt>
      <trkpt lat="45.62974" lon="6.67495">
        <ele>1892.01</ele>
        <time>2009-02-19T13:16:02Z</time>
      </trkpt>
      <trkpt lat="45.62956" lon="6.67512">
        <ele>1889.186</ele>
        <time>2009-02-19T13:16:07Z</time>
      </trkpt>
      <trkpt lat="45.62939" lon="6.67524">
        <ele>1885.299</ele>
        <time>2009-02-19T13:16:12Z</time>
      </trkpt>
      <trkpt lat="45.62919" lon="6.67534">
        <ele>1882.031</ele>
        <time>2009-02-19T13:16:17Z</time>
      </trkpt>
      <trkpt lat="45.62899" lon="6.67544">
        <ele>1879.92</ele>
        <time>2009-02-19T13:16:21Z</time>
      </trkpt>
      <trkpt lat="45.62883" lon="6.67554">
        <ele>1874.983</ele>
        <time>2009-02-19T13:16:25Z</time>
      </trkpt>
      <trkpt lat="45.62864" lon="6.6756">
        <ele>1871.795</ele>
        <time>2009-02-19T13:16:29Z</time>
      </trkpt>
      <trkpt lat="45.62844" lon="6.67566">
        <ele>1868.616</ele>
        <time>2009-02-19T13:16:34Z</time>
      </trkpt>
      <trkpt lat="45.62828" lon="6.67578">
        <ele>1867.556</ele>
        <time>2009-02-19T13:16:40Z</time>
      </trkpt>
      <trkpt lat="45.62813" lon="6.67594">
        <ele>1862.158</ele>
        <time>2009-02-19T13:16:45Z</time>
      </trkpt>
      <trkpt lat="45.62794" lon="6.67609">
        <ele>1860.113</ele>
        <time>2009-02-19T13:16:49Z</time>
      </trkpt>
      <trkpt lat="45.62772" lon="6.67621">
        <ele>1856.815</ele>
        <time>2009-02-19T13:16:53Z</time>
      </trkpt>
      <trkpt lat="45.62754" lon="6.67629">
        <ele>1855.38</ele>
        <time>2009-02-19T13:16:56Z</time>
      </trkpt>
      <trkpt lat="45.62732" lon="6.67642">
        <ele>1851.811</ele>
        <time>2009-02-19T13:17:00Z</time>
      </trkpt>
      <trkpt lat="45.62713" lon="6.67649">
        <ele>1851.8</ele>
        <time>2009-02-19T13:17:03Z</time>
      </trkpt>
      <trkpt lat="45.62691" lon="6.67656">
        <ele>1850.16</ele>
        <time>2009-02-19T13:17:06Z</time>
      </trkpt>
      <trkpt lat="45.6267" lon="6.67666">
        <ele>1847.135</ele>
        <time>2009-02-19T13:17:09Z</time>
      </trkpt>
      <trkpt lat="45.62646" lon="6.67679">
        <ele>1844.34</ele>
        <time>2009-02-19T13:17:12Z</time>
      </trkpt>
      <trkpt lat="45.62624" lon="6.67696">
        <ele>1841.89</ele>
        <time>2009-02-19T13:17:15Z</time>
      </trkpt>
      <trkpt lat="45.62603" lon="6.67708">
        <ele>1838.465</ele>
        <time>2009-02-19T13:17:18Z</time>
      </trkpt>
      <trkpt lat="45.62584" lon="6.67719">
        <ele>1834.293</ele>
        <time>2009-02-19T13:17:21Z</time>
      </trkpt>
      <trkpt lat="45.62561" lon="6.67722">
        <ele>1831.42</ele>
        <time>2009-02-19T13:17:24Z</time>
      </trkpt>
      <trkpt lat="45.62537" lon="6.67726">
        <ele>1826.575</ele>
        <time>2009-02-19T13:17:27Z</time>
      </trkpt>
      <trkpt lat="45.62515" lon="6.67734">
        <ele>1824.855</ele>
        <time>2009-02-19T13:17:30Z</time>
      </trkpt>
      <trkpt lat="45.62497" lon="6.67746">
        <ele>1822.59</ele>
        <time>2009-02-19T13:17:33Z</time>
      </trkpt>
      <trkpt lat="45.62476" lon="6.67757">
        <ele>1818.869</ele>
        <time>2009-02-19T13:17:36Z</time>
      </trkpt>
      <trkpt lat="45.62453" lon="6.67766">
        <ele>1814.617</ele>
        <time>2009-02-19T13:17:39Z</time>
      </trkpt>
      <trkpt lat="45.62429" lon="6.67777">
        <ele>1809.193</ele>
        <time>2009-02-19T13:17:42Z</time>
      </trkpt>
      <trkpt lat="45.62403" lon="6.67786">
        <ele>1801.29</ele>
        <time>2009-02-19T13:17:45Z</time>
      </trkpt>
      <trkpt lat="45.62385" lon="6.67791">
        <ele>1799.519</ele>
        <time>2009-02-19T13:17:47Z</time>
      </trkpt>
      <trkpt lat="45.62361" lon="6.67801">
        <ele>1794.727</ele>
        <time>2009-02-19T13:17:50Z</time>
      </trkpt>
      <trkpt lat="45.62343" lon="6.67805">
        <ele>1794.156</ele>
        <time>2009-02-19T13:17:52Z</time>
      </trkpt>
      <trkpt lat="45.62321" lon="6.67804">
        <ele>1792.968</ele>
        <time>2009-02-19T13:17:55Z</time>
      </trkpt>
      <trkpt lat="45.62299" lon="6.67807">
        <ele>1788.35</ele>
        <time>2009-02-19T13:17:58Z</time>
      </trkpt>
      <trkpt lat="45.62274" lon="6.67815">
        <ele>1784.91</ele>
        <time>2009-02-19T13:18:01Z</time>
      </trkpt>
      <trkpt lat="45.6225" lon="6.67821">
        <ele>1782.161</ele>
        <time>2009-02-19T13:18:04Z</time>
      </trkpt>
      <trkpt lat="45.6223" lon="6.67827">
        <ele>1778.39</ele>
        <time>2009-02-19T13:18:07Z</time>
      </trkpt>
      <trkpt lat="45.6221" lon="6.67839">
        <ele>1775.78</ele>
        <time>2009-02-19T13:18:10Z</time>
      </trkpt>
      <trkpt lat="45.6219" lon="6.67846">
        <ele>1773.287</ele>
        <time>2009-02-19T13:18:13Z</time>
      </trkpt>
      <trkpt lat="45.6217" lon="6.67848">
        <ele>1771.67</ele>
        <time>2009-02-19T13:18:16Z</time>
      </trkpt>
      <trkpt lat="45.62148" lon="6.67846">
        <ele>1769.796</ele>
        <time>2009-02-19T13:18:19Z</time>
      </trkpt>
      <trkpt lat="45.62125" lon="6.67843">
        <ele>1768.67</ele>
        <time>2009-02-19T13:18:22Z</time>
      </trkpt>
      <trkpt lat="45.62103" lon="6.67841">
        <ele>1766.428</ele>
        <time>2009-02-19T13:18:25Z</time>
      </trkpt>
      <trkpt lat="45.62082" lon="6.67834">
        <ele>1764.061</ele>
        <time>2009-02-19T13:18:28Z</time>
      </trkpt>
      <trkpt lat="45.62059" lon="6.67832">
        <ele>1762.386</ele>
        <time>2009-02-19T13:18:31Z</time>
      </trkpt>
      <trkpt lat="45.62035" lon="6.67832">
        <ele>1759.703</ele>
        <time>2009-02-19T13:18:34Z</time>
      </trkpt>
      <trkpt lat="45.62011" lon="6.67832">
        <ele>1756.667</ele>
        <time>2009-02-19T13:18:37Z</time>
      </trkpt>
      <trkpt lat="45.61986" lon="6.67833">
        <ele>1754.011</ele>
        <time>2009-02-19T13:18:40Z</time>
      </trkpt>
      <trkpt lat="45.61961" lon="6.67831">
        <ele>1752.493</ele>
        <time>2009-02-19T13:18:43Z</time>
      </trkpt>
      <trkpt lat="45.61936" lon="6.67832">
        <ele>1750.248</ele>
        <time>2009-02-19T13:18:46Z</time>
      </trkpt>
      <trkpt lat="45.61911" lon="6.67833">
        <ele>1748.064</ele>
        <time>2009-02-19T13:18:49Z</time>
      </trkpt>
      <trkpt lat="45.61887" lon="6.67833">
        <ele>1746.345</ele>
        <time>2009-02-19T13:18:52Z</time>
      </trkpt>
      <trkpt lat="45.61863" lon="6.6783">
        <ele>1745.038</ele>
        <time>2009-02-19T13:18:55Z</time>
      </trkpt>
      <trkpt lat="45.61839" lon="6.67826">
        <ele>1743.141</ele>
        <time>2009-02-19T13:18:58Z</time>
      </trkpt>
      <trkpt lat="45.61815" lon="6.67822">
        <ele>1740.574</ele>
        <time>2009-02-19T13:19:01Z</time>
      </trkpt>
      <trkpt lat="45.61792" lon="6.67819">
        <ele>1738.852</ele>
        <time>2009-02-19T13:19:04Z</time>
      </trkpt>
      <trkpt lat="45.6177" lon="6.67824">
        <ele>1736.289</ele>
        <time>2009-02-19T13:19:07Z</time>
      </trkpt>
      <trkpt lat="45.6175" lon="6.67828">
        <ele>1733.994</ele>
        <time>2009-02-19T13:19:10Z</time>
      </trkpt>
      <trkpt lat="45.61727" lon="6.67833">
        <ele>1730.876</ele>
        <time>2009-02-19T13:19:13Z</time>
      </trkpt>
      <trkpt lat="45.61706" lon="6.67836">
        <ele>1727.979</ele>
        <time>2009-02-19T13:19:16Z</time>
      </trkpt>
      <trkpt lat="45.61684" lon="6.67841">
        <ele>1724.9</ele>
        <time>2009-02-19T13:19:19Z</time>
      </trkpt>
      <trkpt lat="45.61663" lon="6.67844">
        <ele>1722.775</ele>
        <time>2009-02-19T13:19:22Z</time>
      </trkpt>
      <trkpt lat="45.61642" lon="6.67843">
        <ele>1720.35</ele>
        <time>2009-02-19T13:19:25Z</time>
      </trkpt>
      <trkpt lat="45.61621" lon="6.67838">
        <ele>1719.771</ele>
        <time>2009-02-19T13:19:28Z</time>
      </trkpt>
      <trkpt lat="45.61599" lon="6.67833">
        <ele>1718.746</ele>
        <time>2009-02-19T13:19:31Z</time>
      </trkpt>
      <trkpt lat="45.61577" lon="6.67829">
        <ele>1716.709</ele>
        <time>2009-02-19T13:19:34Z</time>
      </trkpt>
      <trkpt lat="45.61555" lon="6.67825">
        <ele>1714.549</ele>
        <time>2009-02-19T13:19:37Z</time>
      </trkpt>
      <trkpt lat="45.61535" lon="6.67823">
        <ele>1713.207</ele>
        <time>2009-02-19T13:19:40Z</time>
      </trkpt>
      <trkpt lat="45.61516" lon="6.67818">
        <ele>1712.882</ele>
        <time>2009-02-19T13:19:43Z</time>
      </trkpt>
      <trkpt lat="45.61498" lon="6.67813">
        <ele>1711.459</ele>
        <time>2009-02-19T13:19:46Z</time>
      </trkpt>
      <trkpt lat="45.6148" lon="6.67807">
        <ele>1710.527</ele>
        <time>2009-02-19T13:19:49Z</time>
      </trkpt>
      <trkpt lat="45.61461" lon="6.67799">
        <ele>1709.574</ele>
        <time>2009-02-19T13:19:52Z</time>
      </trkpt>
      <trkpt lat="45.61443" lon="6.67792">
        <ele>1707.979</ele>
        <time>2009-02-19T13:19:55Z</time>
      </trkpt>
      <trkpt lat="45.61424" lon="6.67786">
        <ele>1705.454</ele>
        <time>2009-02-19T13:19:58Z</time>
      </trkpt>
      <trkpt lat="45.61405" lon="6.67779">
        <ele>1704.259</ele>
        <time>2009-02-19T13:20:01Z</time>
      </trkpt>
      <trkpt lat="45.61387" lon="6.6777">
        <ele>1702.723</ele>
        <time>2009-02-19T13:20:04Z</time>
      </trkpt>
      <trkpt lat="45.61363" lon="6.67761">
        <ele>1699.099</ele>
        <time>2009-02-19T13:20:08Z</time>
      </trkpt>
      <trkpt lat="45.61346" lon="6.67755">
        <ele>1697.713</ele>
        <time>2009-02-19T13:20:11Z</time>
      </trkpt>
      <trkpt lat="45.61326" lon="6.67746">
        <ele>1695.441</ele>
        <time>2009-02-19T13:20:15Z</time>
      </trkpt>
      <trkpt lat="45.61305" lon="6.67741">
        <ele>1692.713</ele>
        <time>2009-02-19T13:20:19Z</time>
      </trkpt>
      <trkpt lat="45.61286" lon="6.67737">
        <ele>1689.991</ele>
        <time>2009-02-19T13:20:23Z</time>
      </trkpt>
      <trkpt lat="45.61266" lon="6.67735">
        <ele>1689.81</ele>
        <time>2009-02-19T13:20:27Z</time>
      </trkpt>
      <trkpt lat="45.61245" lon="6.67735">
        <ele>1687.911</ele>
        <time>2009-02-19T13:20:31Z</time>
      </trkpt>
      <trkpt lat="45.61226" lon="6.67738">
        <ele>1686.772</ele>
        <time>2009-02-19T13:20:36Z</time>
      </trkpt>
      <trkpt lat="45.61205" lon="6.67735">
        <ele>1684.504</ele>
        <time>2009-02-19T13:20:42Z</time>
      </trkpt>
      <trkpt lat="45.61185" lon="6.67736">
        <ele>1682.104</ele>
        <time>2009-02-19T13:20:48Z</time>
      </trkpt>
      <trkpt lat="45.61164" lon="6.67732">
        <ele>1679.028</ele>
        <time>2009-02-19T13:20:53Z</time>
      </trkpt>
      <trkpt lat="45.61145" lon="6.67722">
        <ele>1679.818</ele>
        <time>2009-02-19T13:21:00Z</time>
      </trkpt>
      <trkpt lat="45.61125" lon="6.67713">
        <ele>1679.389</ele>
        <time>2009-02-19T13:21:07Z</time>
      </trkpt>
      <trkpt lat="45.61107" lon="6.67705">
        <ele>1679.804</ele>
        <time>2009-02-19T13:21:13Z</time>
      </trkpt>
      <trkpt lat="45.61088" lon="6.67698">
        <ele>1680.141</ele>
        <time>2009-02-19T13:21:20Z</time>
      </trkpt>
      <trkpt lat="45.6107" lon="6.67692">
        <ele>1678.57</ele>
        <time>2009-02-19T13:21:28Z</time>
      </trkpt>
      <trkpt lat="45.61052" lon="6.67685">
        <ele>1678.15</ele>
        <time>2009-02-19T13:21:40Z</time>
      </trkpt>
      <trkpt lat="45.61038" lon="6.6767">
        <ele>1682.462</ele>
        <time>2009-02-19T13:22:12Z</time>
      </trkpt>
      <trkpt lat="45.61023" lon="6.67654">
        <ele>1684.648</ele>
        <time>2009-02-19T13:22:46Z</time>
      </trkpt>
      <trkpt lat="45.61005" lon="6.67641">
        <ele>1685.009</ele>
        <time>2009-02-19T13:23:18Z</time>
      </trkpt>
      <trkpt lat="45.60989" lon="6.67623">
        <ele>1683.552</ele>
        <time>2009-02-19T13:23:23Z</time>
      </trkpt>
      <trkpt lat="45.60976" lon="6.67605">
        <ele>1681.143</ele>
        <time>2009-02-19T13:23:28Z</time>
      </trkpt>
      <trkpt lat="45.60962" lon="6.67589">
        <ele>1679.788</ele>
        <time>2009-02-19T13:23:38Z</time>
      </trkpt>
      <trkpt lat="45.60946" lon="6.67575">
        <ele>1676.64</ele>
        <time>2009-02-19T13:23:46Z</time>
      </trkpt>
      <trkpt lat="45.60929" lon="6.67565">
        <ele>1676.372</ele>
        <time>2009-02-19T13:23:57Z</time>
      </trkpt>
      <trkpt lat="45.60911" lon="6.67555">
        <ele>1674.009</ele>
        <time>2009-02-19T13:24:06Z</time>
      </trkpt>
      <trkpt lat="45.60895" lon="6.67547">
        <ele>1665.818</ele>
        <time>2009-02-19T13:24:20Z</time>
      </trkpt>
      <trkpt lat="45.60878" lon="6.67537">
        <ele>1662.365</ele>
        <time>2009-02-19T13:24:37Z</time>
      </trkpt>
      <trkpt lat="45.6086" lon="6.67527">
        <ele>1662.87</ele>
        <time>2009-02-19T13:24:46Z</time>
      </trkpt>
      <trkpt lat="45.60842" lon="6.67516">
        <ele>1662.559</ele>
        <time>2009-02-19T13:24:56Z</time>
      </trkpt>
      <trkpt lat="45.60823" lon="6.67509">
        <ele>1662.373</ele>
        <time>2009-02-19T13:25:08Z</time>
      </trkpt>
      <trkpt lat="45.60805" lon="6.67506">
        <ele>1660.179</ele>
        <time>2009-02-19T13:25:20Z</time>
      </trkpt>
      <trkpt lat="45.60786" lon="6.67505">
        <ele>1659.31</ele>
        <time>2009-02-19T13:25:34Z</time>
      </trkpt>
      <trkpt lat="45.60769" lon="6.67498">
        <ele>1658.811</ele>
        <time>2009-02-19T13:25:46Z</time>
      </trkpt>
      <trkpt lat="45.60766" lon="6.67496">
        <ele>1658.473</ele>
        <time>2009-02-19T13:28:11Z</time>
      </trkpt>
      <trkpt lat="45.60747" lon="6.67487">
        <ele>1659.012</ele>
        <time>2009-02-19T13:31:32Z</time>
      </trkpt>
      <trkpt lat="45.60728" lon="6.67475">
        <ele>1657.062</ele>
        <time>2009-02-19T13:31:37Z</time>
      </trkpt>
      <trkpt lat="45.6071" lon="6.67465">
        <ele>1653.628</ele>
        <time>2009-02-19T13:31:40Z</time>
      </trkpt>
      <trkpt lat="45.60692" lon="6.6745">
        <ele>1652.352</ele>
        <time>2009-02-19T13:31:43Z</time>
      </trkpt>
      <trkpt lat="45.60672" lon="6.67438">
        <ele>1650.05</ele>
        <time>2009-02-19T13:31:46Z</time>
      </trkpt>
      <trkpt lat="45.60651" lon="6.67423">
        <ele>1648.22</ele>
        <time>2009-02-19T13:31:49Z</time>
      </trkpt>
      <trkpt lat="45.6063" lon="6.67408">
        <ele>1648.52</ele>
        <time>2009-02-19T13:31:52Z</time>
      </trkpt>
      <trkpt lat="45.60612" lon="6.67399">
        <ele>1648.483</ele>
        <time>2009-02-19T13:31:55Z</time>
      </trkpt>
      <trkpt lat="45.60594" lon="6.67394">
        <ele>1646.809</ele>
        <time>2009-02-19T13:31:59Z</time>
      </trkpt>
      <trkpt lat="45.60575" lon="6.67388">
        <ele>1645.693</ele>
        <time>2009-02-19T13:32:03Z</time>
      </trkpt>
      <trkpt lat="45.60557" lon="6.67378">
        <ele>1644.038</ele>
        <time>2009-02-19T13:32:07Z</time>
      </trkpt>
      <trkpt lat="45.6054" lon="6.67364">
        <ele>1642.096</ele>
        <time>2009-02-19T13:32:11Z</time>
      </trkpt>
      <trkpt lat="45.6052" lon="6.67348">
        <ele>1638.771</ele>
        <time>2009-02-19T13:32:15Z</time>
      </trkpt>
      <trkpt lat="45.60505" lon="6.67332">
        <ele>1636.414</ele>
        <time>2009-02-19T13:32:18Z</time>
      </trkpt>
      <trkpt lat="45.60491" lon="6.6731">
        <ele>1634.159</ele>
        <time>2009-02-19T13:32:21Z</time>
      </trkpt>
      <trkpt lat="45.60473" lon="6.67295">
        <ele>1632.187</ele>
        <time>2009-02-19T13:32:24Z</time>
      </trkpt>
      <trkpt lat="45.60454" lon="6.67284">
        <ele>1631.07</ele>
        <time>2009-02-19T13:32:27Z</time>
      </trkpt>
      <trkpt lat="45.60434" lon="6.67279">
        <ele>1629.298</ele>
        <time>2009-02-19T13:32:30Z</time>
      </trkpt>
      <trkpt lat="45.60412" lon="6.67277">
        <ele>1627.658</ele>
        <time>2009-02-19T13:32:33Z</time>
      </trkpt>
      <trkpt lat="45.60391" lon="6.67274">
        <ele>1626.479</ele>
        <time>2009-02-19T13:32:36Z</time>
      </trkpt>
      <trkpt lat="45.60369" lon="6.67262">
        <ele>1623.124</ele>
        <time>2009-02-19T13:32:39Z</time>
      </trkpt>
      <trkpt lat="45.60349" lon="6.67248">
        <ele>1621.927</ele>
        <time>2009-02-19T13:32:42Z</time>
      </trkpt>
      <trkpt lat="45.60333" lon="6.67233">
        <ele>1621.102</ele>
        <time>2009-02-19T13:32:46Z</time>
      </trkpt>
      <trkpt lat="45.60316" lon="6.67218">
        <ele>1618.079</ele>
        <time>2009-02-19T13:32:53Z</time>
      </trkpt>
      <trkpt lat="45.60298" lon="6.67201">
        <ele>1616.126</ele>
        <time>2009-02-19T13:32:57Z</time>
      </trkpt>
      <trkpt lat="45.60282" lon="6.67182">
        <ele>1613.99</ele>
        <time>2009-02-19T13:33:00Z</time>
      </trkpt>
      <trkpt lat="45.60266" lon="6.67163">
        <ele>1612.084</ele>
        <time>2009-02-19T13:33:03Z</time>
      </trkpt>
      <trkpt lat="45.60258" lon="6.67138">
        <ele>1609.7</ele>
        <time>2009-02-19T13:33:06Z</time>
      </trkpt>
      <trkpt lat="45.60249" lon="6.67114">
        <ele>1607.369</ele>
        <time>2009-02-19T13:33:09Z</time>
      </trkpt>
      <trkpt lat="45.60232" lon="6.67121">
        <ele>1601.113</ele>
        <time>2009-02-19T13:33:13Z</time>
      </trkpt>
      <trkpt lat="45.6021" lon="6.67119">
        <ele>1594.13</ele>
        <time>2009-02-19T13:33:18Z</time>
      </trkpt>
      <trkpt lat="45.6019" lon="6.67137">
        <ele>1588.272</ele>
        <time>2009-02-19T13:33:22Z</time>
      </trkpt>
      <trkpt lat="45.60173" lon="6.67125">
        <ele>1581.974</ele>
        <time>2009-02-19T13:33:26Z</time>
      </trkpt>
      <trkpt lat="45.60156" lon="6.67135">
        <ele>1577.166</ele>
        <time>2009-02-19T13:33:30Z</time>
      </trkpt>
      <trkpt lat="45.60141" lon="6.67114">
        <ele>1573.49</ele>
        <time>2009-02-19T13:33:34Z</time>
      </trkpt>
      <trkpt lat="45.60124" lon="6.67131">
        <ele>1570.602</ele>
        <time>2009-02-19T13:33:38Z</time>
      </trkpt>
      <trkpt lat="45.60109" lon="6.67118">
        <ele>1563.85</ele>
        <time>2009-02-19T13:33:42Z</time>
      </trkpt>
      <trkpt lat="45.60088" lon="6.67118">
        <ele>1559.428</ele>
        <time>2009-02-19T13:33:47Z</time>
      </trkpt>
      <trkpt lat="45.60074" lon="6.67135">
        <ele>1557.386</ele>
        <time>2009-02-19T13:33:54Z</time>
      </trkpt>
      <trkpt lat="45.6006" lon="6.67119">
        <ele>1554.064</ele>
        <time>2009-02-19T13:36:23Z</time>
      </trkpt>
      <trkpt lat="45.60056" lon="6.67091">
        <ele>1553.552</ele>
        <time>2009-02-19T13:36:28Z</time>
      </trkpt>
      <trkpt lat="45.60048" lon="6.67062">
        <ele>1551.718</ele>
        <time>2009-02-19T13:36:32Z</time>
      </trkpt>
      <trkpt lat="45.60037" lon="6.67041">
        <ele>1549.958</ele>
        <time>2009-02-19T13:36:35Z</time>
      </trkpt>
      <trkpt lat="45.60017" lon="6.67025">
        <ele>1549.147</ele>
        <time>2009-02-19T13:36:39Z</time>
      </trkpt>
      <trkpt lat="45.59997" lon="6.6702">
        <ele>1547.543</ele>
        <time>2009-02-19T13:36:42Z</time>
      </trkpt>
      <trkpt lat="45.59974" lon="6.67016">
        <ele>1545.902</ele>
        <time>2009-02-19T13:36:46Z</time>
      </trkpt>
      <trkpt lat="45.59956" lon="6.67015">
        <ele>1544.784</ele>
        <time>2009-02-19T13:36:49Z</time>
      </trkpt>
      <trkpt lat="45.59938" lon="6.67013">
        <ele>1540.217</ele>
        <time>2009-02-19T13:36:52Z</time>
      </trkpt>
      <trkpt lat="45.5992" lon="6.67003">
        <ele>1538.873</ele>
        <time>2009-02-19T13:36:55Z</time>
      </trkpt>
      <trkpt lat="45.59903" lon="6.66989">
        <ele>1536.654</ele>
        <time>2009-02-19T13:36:58Z</time>
      </trkpt>
      <trkpt lat="45.5989" lon="6.66967">
        <ele>1534.248</ele>
        <time>2009-02-19T13:37:01Z</time>
      </trkpt>
      <trkpt lat="45.59875" lon="6.6695">
        <ele>1532.734</ele>
        <time>2009-02-19T13:37:04Z</time>
      </trkpt>
      <trkpt lat="45.59855" lon="6.66945">
        <ele>1531.948</ele>
        <time>2009-02-19T13:37:07Z</time>
      </trkpt>
      <trkpt lat="45.59835" lon="6.66944">
        <ele>1530.151</ele>
        <time>2009-02-19T13:37:10Z</time>
      </trkpt>
      <trkpt lat="45.59812" lon="6.66948">
        <ele>1528.023</ele>
        <time>2009-02-19T13:37:13Z</time>
      </trkpt>
      <trkpt lat="45.59791" lon="6.66952">
        <ele>1526.548</ele>
        <time>2009-02-19T13:37:16Z</time>
      </trkpt>
      <trkpt lat="45.5977" lon="6.66953">
        <ele>1523.781</ele>
        <time>2009-02-19T13:37:19Z</time>
      </trkpt>
      <trkpt lat="45.59751" lon="6.66949">
        <ele>1522.883</ele>
        <time>2009-02-19T13:37:22Z</time>
      </trkpt>
      <trkpt lat="45.59737" lon="6.66925">
        <ele>1518.844</ele>
        <time>2009-02-19T13:37:26Z</time>
      </trkpt>
      <trkpt lat="45.59733" lon="6.66892">
        <ele>1516.391</ele>
        <time>2009-02-19T13:37:30Z</time>
      </trkpt>
      <trkpt lat="45.59734" lon="6.66864">
        <ele>1514.857</ele>
        <time>2009-02-19T13:37:33Z</time>
      </trkpt>
      <trkpt lat="45.59732" lon="6.66837">
        <ele>1511.992</ele>
        <time>2009-02-19T13:37:36Z</time>
      </trkpt>
      <trkpt lat="45.59722" lon="6.66813">
        <ele>1510.537</ele>
        <time>2009-02-19T13:37:39Z</time>
      </trkpt>
      <trkpt lat="45.59705" lon="6.66796">
        <ele>1508.734</ele>
        <time>2009-02-19T13:37:42Z</time>
      </trkpt>
      <trkpt lat="45.59689" lon="6.66782">
        <ele>1507.3</ele>
        <time>2009-02-19T13:37:45Z</time>
      </trkpt>
      <trkpt lat="45.59667" lon="6.66767">
        <ele>1503.867</ele>
        <time>2009-02-19T13:37:49Z</time>
      </trkpt>
      <trkpt lat="45.59648" lon="6.66767">
        <ele>1502.851</ele>
        <time>2009-02-19T13:37:52Z</time>
      </trkpt>
      <trkpt lat="45.59629" lon="6.6677">
        <ele>1501.489</ele>
        <time>2009-02-19T13:37:55Z</time>
      </trkpt>
      <trkpt lat="45.59611" lon="6.6677">
        <ele>1499.151</ele>
        <time>2009-02-19T13:37:58Z</time>
      </trkpt>
      <trkpt lat="45.596" lon="6.66791">
        <ele>1492.897</ele>
        <time>2009-02-19T13:38:03Z</time>
      </trkpt>
      <trkpt lat="45.59616" lon="6.66808">
        <ele>1491.491</ele>
        <time>2009-02-19T13:38:06Z</time>
      </trkpt>
      <trkpt lat="45.59632" lon="6.66827">
        <ele>1489.107</ele>
        <time>2009-02-19T13:38:09Z</time>
      </trkpt>
      <trkpt lat="45.59638" lon="6.66852">
        <ele>1487.459</ele>
        <time>2009-02-19T13:38:12Z</time>
      </trkpt>
      <trkpt lat="45.59638" lon="6.66881">
        <ele>1484.852</ele>
        <time>2009-02-19T13:38:15Z</time>
      </trkpt>
      <trkpt lat="45.59635" lon="6.6691">
        <ele>1483.613</ele>
        <time>2009-02-19T13:38:18Z</time>
      </trkpt>
      <trkpt lat="45.59634" lon="6.66937">
        <ele>1481.346</ele>
        <time>2009-02-19T13:38:21Z</time>
      </trkpt>
      <trkpt lat="45.59636" lon="6.66965">
        <ele>1479.12</ele>
        <time>2009-02-19T13:38:24Z</time>
      </trkpt>
      <trkpt lat="45.59641" lon="6.66991">
        <ele>1479.16</ele>
        <time>2009-02-19T13:38:27Z</time>
      </trkpt>
      <trkpt lat="45.59631" lon="6.67017">
        <ele>1478.428</ele>
        <time>2009-02-19T13:38:31Z</time>
      </trkpt>
      <trkpt lat="45.59608" lon="6.67009">
        <ele>1478.406</ele>
        <time>2009-02-19T13:38:35Z</time>
      </trkpt>
      <trkpt lat="45.59586" lon="6.67">
        <ele>1478.537</ele>
        <time>2009-02-19T13:38:39Z</time>
      </trkpt>
      <trkpt lat="45.59565" lon="6.67">
        <ele>1478.97</ele>
        <time>2009-02-19T13:38:43Z</time>
      </trkpt>
      <trkpt lat="45.59544" lon="6.67">
        <ele>1480.084</ele>
        <time>2009-02-19T13:38:47Z</time>
      </trkpt>
      <trkpt lat="45.59527" lon="6.66992">
        <ele>1478.966</ele>
        <time>2009-02-19T13:38:51Z</time>
      </trkpt>
      <trkpt lat="45.59507" lon="6.66994">
        <ele>1477.275</ele>
        <time>2009-02-19T13:38:55Z</time>
      </trkpt>
      <trkpt lat="45.59488" lon="6.67004">
        <ele>1477.421</ele>
        <time>2009-02-19T13:38:59Z</time>
      </trkpt>
      <trkpt lat="45.5947" lon="6.67021">
        <ele>1475.779</ele>
        <time>2009-02-19T13:39:03Z</time>
      </trkpt>
      <trkpt lat="45.5945" lon="6.67032">
        <ele>1475.204</ele>
        <time>2009-02-19T13:39:07Z</time>
      </trkpt>
      <trkpt lat="45.59427" lon="6.67042">
        <ele>1474.09</ele>
        <time>2009-02-19T13:39:11Z</time>
      </trkpt>
      <trkpt lat="45.59411" lon="6.67056">
        <ele>1471.761</ele>
        <time>2009-02-19T13:39:14Z</time>
      </trkpt>
      <trkpt lat="45.59395" lon="6.67068">
        <ele>1470.394</ele>
        <time>2009-02-19T13:39:17Z</time>
      </trkpt>
      <trkpt lat="45.59374" lon="6.67077">
        <ele>1469.003</ele>
        <time>2009-02-19T13:39:21Z</time>
      </trkpt>
      <trkpt lat="45.59352" lon="6.6708">
        <ele>1469.038</ele>
        <time>2009-02-19T13:39:26Z</time>
      </trkpt>
      <trkpt lat="45.59332" lon="6.67075">
        <ele>1470.613</ele>
        <time>2009-02-19T13:39:32Z</time>
      </trkpt>
      <trkpt lat="45.59314" lon="6.6707">
        <ele>1469.634</ele>
        <time>2009-02-19T13:39:39Z</time>
      </trkpt>
      <trkpt lat="45.59294" lon="6.67071">
        <ele>1469.257</ele>
        <time>2009-02-19T13:39:47Z</time>
      </trkpt>
      <trkpt lat="45.59274" lon="6.67072">
        <ele>1471.028</ele>
        <time>2009-02-19T13:39:55Z</time>
      </trkpt>
      <trkpt lat="45.59255" lon="6.67073">
        <ele>1471.083</ele>
        <time>2009-02-19T13:40:01Z</time>
      </trkpt>
      <trkpt lat="45.59236" lon="6.67073">
        <ele>1473.801</ele>
        <time>2009-02-19T13:40:08Z</time>
      </trkpt>
      <trkpt lat="45.59216" lon="6.67075">
        <ele>1476.635</ele>
        <time>2009-02-19T13:40:15Z</time>
      </trkpt>
      <trkpt lat="45.59197" lon="6.67081">
        <ele>1481.783</ele>
        <time>2009-02-19T13:40:23Z</time>
      </trkpt>
      <trkpt lat="45.59179" lon="6.67084">
        <ele>1480.268</ele>
        <time>2009-02-19T13:40:31Z</time>
      </trkpt>
      <trkpt lat="45.59163" lon="6.67087">
        <ele>1469.726</ele>
        <time>2009-02-19T13:52:14Z</time>
      </trkpt>
      <trkpt lat="45.59145" lon="6.67085">
        <ele>1466.212</ele>
        <time>2009-02-19T13:52:27Z</time>
      </trkpt>
      <trkpt lat="45.59127" lon="6.67086">
        <ele>1463.661</ele>
        <time>2009-02-19T13:52:36Z</time>
      </trkpt>
      <trkpt lat="45.59106" lon="6.67083">
        <ele>1461.365</ele>
        <time>2009-02-19T13:52:48Z</time>
      </trkpt>
      <trkpt lat="45.59089" lon="6.6707">
        <ele>1458.061</ele>
        <time>2009-02-19T13:52:55Z</time>
      </trkpt>
      <trkpt lat="45.59072" lon="6.67062">
        <ele>1455.47</ele>
        <time>2009-02-19T13:53:01Z</time>
      </trkpt>
      <trkpt lat="45.59054" lon="6.67061">
        <ele>1450.944</ele>
        <time>2009-02-19T13:53:07Z</time>
      </trkpt>
      <trkpt lat="45.59033" lon="6.67068">
        <ele>1447.677</ele>
        <time>2009-02-19T13:53:14Z</time>
      </trkpt>
      <trkpt lat="45.59013" lon="6.67068">
        <ele>1443.423</ele>
        <time>2009-02-19T13:53:21Z</time>
      </trkpt>
    </trkseg>
  </trk>
</gpx>